Observation data for Throckmorton on 01/11/2018      Previous  Date  Next       Current Mesonet Observations  Soil Data  Daily Summary Page  Observations in Plain Language
KTH1 110600Z 21009KT 12/05 A2964 RMK A01 T01180047  RH  061%=      5-min Rain = 0
KTH1 110601Z 20008KT 12/05 A2964 RMK A01 T01180046  RH  061%=      5-min Rain = 0
KTH1 110602Z 21009KT 12/05 A2964 RMK A01 T01180046  RH  061%=      5-min Rain = 0
KTH1 110603Z 21009KT 12/05 A2964 RMK A01 T01170046  RH  061%=      5-min Rain = 0
KTH1 110604Z 21009KT 12/05 A2964 RMK A01 T01170045  RH  061%=      5-min Rain = 0
KTH1 110605Z 21008KT 12/05 A2964 RMK A01 T01160045  RH  062%=      5-min Rain = 0
KTH1 110606Z 21007KT 12/05 A2964 RMK A01 T01160045  RH  062%=      5-min Rain = 0
KTH1 110607Z 21008KT 12/05 A2964 RMK A01 T01150045  RH  062%=      5-min Rain = 0
KTH1 110608Z 20008KT 12/04 A2964 RMK A01 T01150044  RH  062%=      5-min Rain = 0
KTH1 110609Z 20008KT 12/04 A2964 RMK A01 T01150044  RH  062%=      5-min Rain = 0
KTH1 110610Z 20009KT 12/04 A2964 RMK A01 T01150043  RH  061%=      5-min Rain = 0
KTH1 110611Z 21008KT 12/04 A2964 RMK A01 T01150043  RH  061%=      5-min Rain = 0
KTH1 110612Z 21008KT 12/04 A2964 RMK A01 T01150043  RH  061%=      5-min Rain = 0
KTH1 110613Z 21008KT 11/04 A2964 RMK A01 T01140042  RH  061%=      5-min Rain = 0
KTH1 110614Z 21007KT 12/04 A2964 RMK A01 T01150042  RH  061%=      5-min Rain = 0
KTH1 110615Z 21007KT 12/04 A2964 RMK A01 T01150042  RH  061%=      5-min Rain = 0
KTH1 110616Z 23007KT 11/04 A2964 RMK A01 T01140041  RH  061%=      5-min Rain = 0
KTH1 110617Z 22007KT 11/04 A2964 RMK A01 T01140041  RH  061%=      5-min Rain = 0
KTH1 110618Z 23006KT 11/04 A2964 RMK A01 T01140041  RH  061%=      5-min Rain = 0
KTH1 110619Z 23006KT 11/04 A2964 RMK A01 T01140041  RH  061%=      5-min Rain = 0
KTH1 110620Z 22006KT 11/04 A2964 RMK A01 T01130042  RH  061%=      5-min Rain = 0
KTH1 110621Z 23005KT 11/04 A2964 RMK A01 T01120041  RH  062%=      5-min Rain = 0
KTH1 110622Z 22007KT 11/04 A2964 RMK A01 T01110040  RH  062%=      5-min Rain = 0
KTH1 110623Z 22007KT 11/04 A2964 RMK A01 T01120039  RH  061%=      5-min Rain = 0
KTH1 110624Z 21008KT 11/04 A2964 RMK A01 T01120038  RH  060%=      5-min Rain = 0
KTH1 110625Z 21007KT 11/04 A2964 RMK A01 T01120038  RH  060%=      5-min Rain = 0
KTH1 110626Z 21008KT 11/04 A2963 RMK A01 T01120038  RH  060%=      5-min Rain = 0
KTH1 110627Z 21007KT 11/04 A2963 RMK A01 T01120037  RH  060%=      5-min Rain = 0
KTH1 110628Z 21007KT 11/04 A2963 RMK A01 T01120037  RH  060%=      5-min Rain = 0
KTH1 110629Z 21008KT 11/04 A2964 RMK A01 T01120037  RH  060%=      5-min Rain = 0
KTH1 110630Z 21007KT 11/04 A2963 RMK A01 T01120037  RH  060%=      5-min Rain = 0
KTH1 110631Z 20008KT 11/04 A2963 RMK A01 T01120037  RH  060%=      5-min Rain = 0
KTH1 110632Z 20008KT 11/04 A2963 RMK A01 T01120037  RH  060%=      5-min Rain = 0
KTH1 110633Z 20008KT 11/04 A2963 RMK A01 T01130037  RH  059%=      5-min Rain = 0
KTH1 110634Z 20010KT 11/04 A2963 RMK A01 T01140036  RH  059%=      5-min Rain = 0
KTH1 110635Z 20010KT 12/04 A2963 RMK A01 T01160036  RH  058%=      5-min Rain = 0
KTH1 110636Z 20009KT 12/04 A2963 RMK A01 T01180036  RH  057%=      5-min Rain = 0
KTH1 110637Z 20009KT 12/04 A2963 RMK A01 T01190036  RH  057%=      5-min Rain = 0
KTH1 110638Z 19008KT 12/04 A2963 RMK A01 T01190036  RH  057%=      5-min Rain = 0
KTH1 110639Z 20008KT 12/04 A2963 RMK A01 T01190036  RH  057%=      5-min Rain = 0
KTH1 110640Z 20009KT 12/04 A2963 RMK A01 T01190035  RH  056%=      5-min Rain = 0
KTH1 110641Z 19009KT 12/04 A2963 RMK A01 T01200035  RH  056%=      5-min Rain = 0
KTH1 110642Z 20009KT 12/04 A2963 RMK A01 T01210035  RH  056%=      5-min Rain = 0
KTH1 110643Z 20009KT 12/04 A2963 RMK A01 T01220035  RH  055%=      5-min Rain = 0
KTH1 110644Z 20008KT 12/04 A2963 RMK A01 T01220035  RH  055%=      5-min Rain = 0
KTH1 110645Z 20010KT 12/04 A2963 RMK A01 T01220035  RH  055%=      5-min Rain = 0
KTH1 110646Z 19011KT 12/04 A2963 RMK A01 T01220035  RH  055%=      5-min Rain = 0
KTH1 110647Z 19011KT 12/04 A2963 RMK A01 T01230035  RH  055%=      5-min Rain = 0
KTH1 110648Z 19011KT 12/04 A2963 RMK A01 T01240035  RH  055%=      5-min Rain = 0
KTH1 110649Z 20011KT 12/04 A2963 RMK A01 T01240035  RH  055%=      5-min Rain = 0
KTH1 110650Z 19010KT 12/04 A2963 RMK A01 T01240035  RH  054%=      5-min Rain = 0
KTH1 110651Z 20010KT 12/03 A2963 RMK A01 T01240034  RH  054%=      5-min Rain = 0
KTH1 110652Z 20012KT 12/04 A2963 RMK A01 T01240035  RH  054%=      5-min Rain = 0
KTH1 110653Z 20011KT 12/03 A2963 RMK A01 T01240034  RH  054%=      5-min Rain = 0
KTH1 110654Z 20010KT 13/03 A2963 RMK A01 T01250034  RH  054%=      5-min Rain = 0
KTH1 110655Z 20011KT 13/03 A2963 RMK A01 T01260034  RH  053%=      5-min Rain = 0
KTH1 110656Z 19011KT 13/03 A2963 RMK A01 T01270034  RH  053%=      5-min Rain = 0
KTH1 110657Z 20010KT 13/03 A2962 RMK A01 T01280034  RH  053%=      5-min Rain = 0
KTH1 110658Z 20010KT 13/03 A2962 RMK A01 T01280033  RH  053%=      5-min Rain = 0
KTH1 110659Z 20012KT 13/03 A2962 RMK A01 T01280033  RH  052%=      5-min Rain = 0
KTH1 110700Z 20011KT 13/03 A2962 RMK A01 T01290033  RH  052%=      5-min Rain = 0
KTH1 110701Z 20009KT 13/03 A2962 RMK A01 T01290033  RH  052%=      5-min Rain = 0
KTH1 110702Z 19008KT 13/03 A2962 RMK A01 T01290033  RH  052%=      5-min Rain = 0
KTH1 110703Z 19010KT 13/03 A2962 RMK A01 T01280034  RH  053%=      5-min Rain = 0
KTH1 110704Z 19011KT 13/03 A2962 RMK A01 T01280033  RH  053%=      5-min Rain = 0
KTH1 110705Z 19010KT 13/03 A2962 RMK A01 T01280033  RH  052%=      5-min Rain = 0
KTH1 110706Z 19010KT 13/03 A2962 RMK A01 T01280033  RH  052%=      5-min Rain = 0
KTH1 110707Z 20010KT 13/03 A2962 RMK A01 T01270033  RH  053%=      5-min Rain = 0
KTH1 110708Z 20009KT 13/03 A2962 RMK A01 T01270033  RH  053%=      5-min Rain = 0
KTH1 110709Z 20009KT 13/03 A2962 RMK A01 T01270033  RH  053%=      5-min Rain = 0
KTH1 110710Z 20010KT 13/03 A2962 RMK A01 T01270033  RH  053%=      5-min Rain = 0
KTH1 110711Z 20010KT 13/03 A2962 RMK A01 T01270033  RH  053%=      5-min Rain = 0
KTH1 110712Z 20009KT 13/03 A2962 RMK A01 T01260033  RH  053%=      5-min Rain = 0
KTH1 110713Z 20009KT 13/03 A2962 RMK A01 T01260033  RH  053%=      5-min Rain = 0
KTH1 110714Z 20008KT 13/03 A2962 RMK A01 T01250033  RH  053%=      5-min Rain = 0
KTH1 110715Z 21008KT 13/03 A2962 RMK A01 T01250033  RH  054%=      5-min Rain = 0
KTH1 110716Z 20009KT 12/03 A2962 RMK A01 T01240033  RH  054%=      5-min Rain = 0
KTH1 110717Z 21009KT 12/03 A2962 RMK A01 T01240033  RH  054%=      5-min Rain = 0
KTH1 110718Z 20010KT 12/03 A2961 RMK A01 T01240033  RH  054%=      5-min Rain = 0
KTH1 110719Z 20010KT 12/03 A2961 RMK A01 T01240033  RH  054%=      5-min Rain = 0
KTH1 110720Z 20009KT 12/03 A2961 RMK A01 T01240033  RH  054%=      5-min Rain = 0
KTH1 110721Z 20009KT 13/03 A2961 RMK A01 T01250033  RH  053%=      5-min Rain = 0
KTH1 110722Z 20009KT 13/03 A2961 RMK A01 T01250033  RH  053%=      5-min Rain = 0
KTH1 110723Z 20010KT 13/03 A2961 RMK A01 T01250033  RH  053%=      5-min Rain = 0
KTH1 110724Z 19009KT 12/03 A2961 RMK A01 T01240032  RH  054%=      5-min Rain = 0
KTH1 110725Z 20009KT 12/03 A2961 RMK A01 T01240032  RH  054%=      5-min Rain = 0
KTH1 110726Z 20009KT 12/03 A2961 RMK A01 T01240032  RH  053%=      5-min Rain = 0
KTH1 110727Z 20010KT 12/03 A2961 RMK A01 T01240032  RH  053%=      5-min Rain = 0
KTH1 110728Z 20010KT 12/03 A2961 RMK A01 T01240032  RH  053%=      5-min Rain = 0
KTH1 110729Z 19009KT 12/03 A2961 RMK A01 T01240032  RH  053%=      5-min Rain = 0
KTH1 110730Z 20010KT 13/03 A2961 RMK A01 T01250032  RH  053%=      5-min Rain = 0
KTH1 110731Z 19008KT 13/03 A2961 RMK A01 T01250032  RH  053%=      5-min Rain = 0
KTH1 110732Z 20010KT 13/03 A2961 RMK A01 T01260032  RH  053%=      5-min Rain = 0
KTH1 110733Z 20009KT 13/03 A2961 RMK A01 T01260032  RH  053%=      5-min Rain = 0
KTH1 110734Z 19010KT 13/03 A2961 RMK A01 T01260032  RH  052%=      5-min Rain = 0
KTH1 110735Z 20010KT 13/03 A2961 RMK A01 T01270032  RH  053%=      5-min Rain = 0
KTH1 110736Z 20010G15KT 13/03 A2961 RMK A01 T01260032  RH  053%=      5-min Rain = 0
KTH1 110737Z 19010KT 13/03 A2961 RMK A01 T01260032  RH  053%=      5-min Rain = 0
KTH1 110738Z 19010KT 13/03 A2961 RMK A01 T01260032  RH  053%=      5-min Rain = 0
KTH1 110739Z 20009KT 13/03 A2961 RMK A01 T01260032  RH  053%=      5-min Rain = 0
KTH1 110740Z 20011KT 13/03 A2961 RMK A01 T01260032  RH  053%=      5-min Rain = 0
KTH1 110741Z 19010G15KT 13/03 A2961 RMK A01 T01260032  RH  053%=      5-min Rain = 0
KTH1 110742Z 20009KT 13/03 A2961 RMK A01 T01260032  RH  053%=      5-min Rain = 0
KTH1 110743Z 20010KT 13/03 A2961 RMK A01 T01260031  RH  053%=      5-min Rain = 0
KTH1 110744Z 20010KT 13/03 A2961 RMK A01 T01260031  RH  052%=      5-min Rain = 0
KTH1 110745Z 20010G15KT 13/03 A2961 RMK A01 T01270032  RH  052%=      5-min Rain = 0
KTH1 110746Z 20009KT 13/03 A2961 RMK A01 T01270031  RH  052%=      5-min Rain = 0
KTH1 110747Z 20009KT 13/03 A2961 RMK A01 T01280031  RH  052%=      5-min Rain = 0
KTH1 110748Z 20008KT 13/03 A2961 RMK A01 T01280031  RH  052%=      5-min Rain = 0
KTH1 110749Z 20009KT 13/03 A2961 RMK A01 T01280031  RH  052%=      5-min Rain = 0
KTH1 110750Z 20009KT 13/03 A2961 RMK A01 T01270031  RH  052%=      5-min Rain = 0
KTH1 110751Z 20008KT 13/03 A2961 RMK A01 T01270031  RH  052%=      5-min Rain = 0
KTH1 110752Z 21009KT 13/03 A2961 RMK A01 T01270031  RH  052%=      5-min Rain = 0
KTH1 110753Z 21009KT 13/03 A2961 RMK A01 T01270031  RH  052%=      5-min Rain = 0
KTH1 110754Z 20008KT 13/03 A2961 RMK A01 T01270031  RH  052%=      5-min Rain = 0
KTH1 110755Z 21010KT 13/03 A2961 RMK A01 T01260031  RH  052%=      5-min Rain = 0
KTH1 110756Z 21010KT 13/03 A2961 RMK A01 T01250030  RH  052%=      5-min Rain = 0
KTH1 110757Z 20010KT 13/03 A2961 RMK A01 T01260031  RH  052%=      5-min Rain = 0
KTH1 110758Z 20010KT 13/03 A2961 RMK A01 T01260030  RH  052%=      5-min Rain = 0
KTH1 110759Z 20009KT 13/03 A2961 RMK A01 T01260030  RH  052%=      5-min Rain = 0
KTH1 110800Z 21010KT 13/03 A2961 RMK A01 T01260031  RH  052%=      5-min Rain = 0
KTH1 110801Z 21007KT 13/03 A2961 RMK A01 T01260031  RH  052%=      5-min Rain = 0
KTH1 110802Z 21009KT 13/03 A2961 RMK A01 T01250031  RH  052%=      5-min Rain = 0
KTH1 110803Z 21010KT 13/03 A2961 RMK A01 T01250031  RH  053%=      5-min Rain = 0
KTH1 110804Z 21009KT 12/03 A2961 RMK A01 T01240030  RH  053%=      5-min Rain = 0
KTH1 110805Z 21011KT 12/03 A2961 RMK A01 T01240030  RH  053%=      5-min Rain = 0
KTH1 110806Z 20010KT 12/03 A2961 RMK A01 T01240030  RH  053%=      5-min Rain = 0
KTH1 110807Z 21009KT 12/03 A2961 RMK A01 T01240030  RH  053%=      5-min Rain = 0
KTH1 110808Z 21011KT 12/03 A2961 RMK A01 T01240030  RH  053%=      5-min Rain = 0
KTH1 110809Z 21009KT 12/03 A2961 RMK A01 T01240030  RH  053%=      5-min Rain = 0
KTH1 110810Z 21009KT 12/03 A2961 RMK A01 T01240030  RH  053%=      5-min Rain = 0
KTH1 110811Z 21009KT 12/03 A296 RMK A01 T01240030  RH  053%=      5-min Rain = 0
KTH1 110812Z 21009KT 12/03 A296 RMK A01 T01230030  RH  053%=      5-min Rain = 0
KTH1 110813Z 21008KT 12/03 A296 RMK A01 T01220030  RH  053%=      5-min Rain = 0
KTH1 110814Z 21008KT 12/03 A296 RMK A01 T01210030  RH  054%=      5-min Rain = 0
KTH1 110815Z 21008KT 12/03 A296 RMK A01 T01200030  RH  054%=      5-min Rain = 0
KTH1 110816Z 21008KT 12/03 A296 RMK A01 T01200030  RH  054%=      5-min Rain = 0
KTH1 110817Z 21009KT 12/03 A296 RMK A01 T01200030  RH  054%=      5-min Rain = 0
KTH1 110818Z 21010KT 12/03 A296 RMK A01 T01190030  RH  054%=      5-min Rain = 0
KTH1 110819Z 21010KT 12/03 A296 RMK A01 T01190030  RH  054%=      5-min Rain = 0
KTH1 110820Z 21009KT 12/03 A2961 RMK A01 T01190030  RH  054%=      5-min Rain = 0
KTH1 110821Z 21009KT 12/03 A2961 RMK A01 T01190030  RH  055%=      5-min Rain = 0
KTH1 110822Z 21009KT 12/03 A296 RMK A01 T01180030  RH  055%=      5-min Rain = 0
KTH1 110823Z 21010KT 12/03 A2961 RMK A01 T01180030  RH  055%=      5-min Rain = 0
KTH1 110824Z 21010KT 12/03 A296 RMK A01 T01170030  RH  055%=      5-min Rain = 0
KTH1 110825Z 21011KT 12/03 A296 RMK A01 T01170030  RH  055%=      5-min Rain = 0
KTH1 110826Z 21010KT 12/03 A296 RMK A01 T01180030  RH  055%=      5-min Rain = 0
KTH1 110827Z 22012KT 12/03 A296 RMK A01 T01200031  RH  054%=      5-min Rain = 0
KTH1 110828Z 22011KT 12/03 A296 RMK A01 T01210030  RH  054%=      5-min Rain = 0
KTH1 110829Z 22010KT 12/03 A296 RMK A01 T01210031  RH  054%=      5-min Rain = 0
KTH1 110830Z 22009KT 12/03 A296 RMK A01 T01210030  RH  054%=      5-min Rain = 0
KTH1 110831Z 22009KT 12/03 A296 RMK A01 T01210030  RH  054%=      5-min Rain = 0
KTH1 110832Z 22009KT 12/03 A296 RMK A01 T01210030  RH  054%=      5-min Rain = 0
KTH1 110833Z 23010KT 12/03 A296 RMK A01 T01200030  RH  054%=      5-min Rain = 0
KTH1 110834Z 22009KT 12/03 A296 RMK A01 T01200030  RH  054%=      5-min Rain = 0
KTH1 110835Z 23010KT 12/03 A296 RMK A01 T01200030  RH  054%=      5-min Rain = 0
KTH1 110836Z 23009KT 12/03 A296 RMK A01 T01200030  RH  054%=      5-min Rain = 0
KTH1 110837Z 22011KT 12/03 A296 RMK A01 T01210031  RH  054%=      5-min Rain = 0
KTH1 110838Z 23010KT 12/03 A296 RMK A01 T01210031  RH  054%=      5-min Rain = 0
KTH1 110839Z 23009KT 12/03 A296 RMK A01 T01210031  RH  054%=      5-min Rain = 0
KTH1 110840Z 22010KT 12/03 A296 RMK A01 T01210031  RH  054%=      5-min Rain = 0
KTH1 110841Z 23010KT 12/03 A296 RMK A01 T01210031  RH  054%=      5-min Rain = 0
KTH1 110842Z 23010KT 12/03 A296 RMK A01 T01210031  RH  054%=      5-min Rain = 0
KTH1 110843Z 22010KT 12/03 A296 RMK A01 T01210031  RH  054%=      5-min Rain = 0
KTH1 110844Z 22011KT 12/03 A296 RMK A01 T01210031  RH  054%=      5-min Rain = 0
KTH1 110845Z 23012KT 12/03 A296 RMK A01 T01210031  RH  054%=      5-min Rain = 0
KTH1 110846Z 22010KT 12/03 A296 RMK A01 T01220031  RH  054%=      5-min Rain = 0
KTH1 110847Z 22013KT 12/03 A296 RMK A01 T01220031  RH  054%=      5-min Rain = 0
KTH1 110848Z 22011G17KT 12/03 A296 RMK A01 T01220031  RH  054%=      5-min Rain = 0
KTH1 110849Z 22011KT 12/03 A296 RMK A01 T01220031  RH  054%=      5-min Rain = 0
KTH1 110850Z 22011KT 12/03 A296 RMK A01 T01220031  RH  053%=      5-min Rain = 0
KTH1 110851Z 22012KT 12/03 A296 RMK A01 T01230031  RH  054%=      5-min Rain = 0
KTH1 110852Z 22012KT 12/03 A296 RMK A01 T01220031  RH  054%=      5-min Rain = 0
KTH1 110853Z 22012KT 12/03 A296 RMK A01 T01220031  RH  054%=      5-min Rain = 0
KTH1 110854Z 22011KT 12/03 A296 RMK A01 T01220031  RH  054%=      5-min Rain = 0
KTH1 110855Z 22010KT 12/03 A296 RMK A01 T01210031  RH  054%=      5-min Rain = 0
KTH1 110856Z 22010KT 12/03 A296 RMK A01 T01200030  RH  054%=      5-min Rain = 0
KTH1 110857Z 22010KT 12/03 A296 RMK A01 T01190031  RH  055%=      5-min Rain = 0
KTH1 110858Z 21009KT 12/03 A296 RMK A01 T01180030  RH  055%=      5-min Rain = 0
KTH1 110859Z 21010KT 12/03 A296 RMK A01 T01180031  RH  055%=      5-min Rain = 0
KTH1 110900Z 21010KT 12/03 A296 RMK A01 T01170031  RH  055%=      5-min Rain = 0
KTH1 110901Z 21010KT 12/03 A296 RMK A01 T01170030  RH  055%=      5-min Rain = 0
KTH1 110902Z 21011KT 12/03 A296 RMK A01 T01170031  RH  056%=      5-min Rain = 0
KTH1 110903Z 21011KT 12/03 A296 RMK A01 T01160030  RH  056%=      5-min Rain = 0
KTH1 110904Z 21011KT 12/03 A296 RMK A01 T01160031  RH  056%=      5-min Rain = 0
KTH1 110905Z 21011KT 12/03 A296 RMK A01 T01160031  RH  056%=      5-min Rain = 0
KTH1 110906Z 21012KT 12/03 A296 RMK A01 T01160031  RH  056%=      5-min Rain = 0
KTH1 110907Z 21010KT 12/03 A296 RMK A01 T01160031  RH  056%=      5-min Rain = 0
KTH1 110908Z 21011KT 12/03 A296 RMK A01 T01160031  RH  056%=      5-min Rain = 0
KTH1 110909Z 21012KT 12/03 A296 RMK A01 T01160031  RH  056%=      5-min Rain = 0
KTH1 110910Z 21011KT 12/03 A296 RMK A01 T01160031  RH  056%=      5-min Rain = 0
KTH1 110911Z 21010G15KT 12/03 A296 RMK A01 T01160031  RH  056%=      5-min Rain = 0
KTH1 110912Z 21011KT 12/03 A296 RMK A01 T01160031  RH  056%=      5-min Rain = 0
KTH1 110913Z 21013KT 12/03 A296 RMK A01 T01160031  RH  056%=      5-min Rain = 0
KTH1 110914Z 21012KT 12/03 A2959 RMK A01 T01150031  RH  056%=      5-min Rain = 0
KTH1 110915Z 21011G16KT 12/03 A2959 RMK A01 T01160031  RH  056%=      5-min Rain = 0
KTH1 110916Z 22009KT 12/03 A2959 RMK A01 T01160031  RH  056%=      5-min Rain = 0
KTH1 110917Z 22011KT 12/03 A2959 RMK A01 T01160031  RH  056%=      5-min Rain = 0
KTH1 110918Z 22012KT 12/03 A2959 RMK A01 T01160031  RH  056%=      5-min Rain = 0
KTH1 110919Z 22011KT 12/03 A2959 RMK A01 T01170031  RH  056%=      5-min Rain = 0
KTH1 110920Z 22011KT 12/03 A2959 RMK A01 T01170031  RH  056%=      5-min Rain = 0
KTH1 110921Z 22012KT 12/03 A2959 RMK A01 T01170032  RH  056%=      5-min Rain = 0
KTH1 110922Z 23009KT 12/03 A2959 RMK A01 T01170032  RH  056%=      5-min Rain = 0
KTH1 110923Z 23010KT 12/03 A2959 RMK A01 T01170031  RH  056%=      5-min Rain = 0
KTH1 110924Z 23011KT 12/03 A2959 RMK A01 T01160032  RH  056%=      5-min Rain = 0
KTH1 110925Z 23011KT 12/03 A2959 RMK A01 T01160032  RH  056%=      5-min Rain = 0
KTH1 110926Z 23010KT 12/03 A2959 RMK A01 T01160032  RH  056%=      5-min Rain = 0
KTH1 110927Z 23010KT 12/03 A2959 RMK A01 T01150031  RH  056%=      5-min Rain = 0
KTH1 110928Z 22009KT 12/03 A2959 RMK A01 T01150031  RH  056%=      5-min Rain = 0
KTH1 110929Z 23013G18KT 12/03 A2959 RMK A01 T01150032  RH  056%=      5-min Rain = 0
KTH1 110930Z 23011G17KT 12/03 A2959 RMK A01 T01160032  RH  056%=      5-min Rain = 0
KTH1 110931Z 23012G17KT 12/03 A2959 RMK A01 T01180032  RH  056%=      5-min Rain = 0
KTH1 110932Z 23015KT 12/03 A2959 RMK A01 T01200033  RH  055%=      5-min Rain = 0
KTH1 110933Z 23013G18KT 12/03 A2959 RMK A01 T01210032  RH  054%=      5-min Rain = 0
KTH1 110934Z 23014KT 12/03 A2959 RMK A01 T01230032  RH  054%=      5-min Rain = 0
KTH1 110935Z 23013KT 12/03 A2959 RMK A01 T01230032  RH  054%=      5-min Rain = 0
KTH1 110936Z 23013G18KT 12/03 A2959 RMK A01 T01230032  RH  054%=      5-min Rain = 0
KTH1 110937Z 23013KT 12/03 A2959 RMK A01 T01240032  RH  054%=      5-min Rain = 0
KTH1 110938Z 24013KT 12/03 A2959 RMK A01 T01240032  RH  053%=      5-min Rain = 0
KTH1 110939Z 23012KT 12/03 A2959 RMK A01 T01240032  RH  053%=      5-min Rain = 0
KTH1 110940Z 23010KT 12/03 A2959 RMK A01 T01240032  RH  053%=      5-min Rain = 0
KTH1 110941Z 24012G17KT 12/03 A2959 RMK A01 T01240032  RH  053%=      5-min Rain = 0
KTH1 110942Z 23013G22KT 13/03 A2959 RMK A01 T01250032  RH  053%=      5-min Rain = 0
KTH1 110943Z 23015KT 13/03 A2959 RMK A01 T01250032  RH  053%=      5-min Rain = 0
KTH1 110944Z 23013KT 13/03 A2959 RMK A01 T01250032  RH  053%=      5-min Rain = 0
KTH1 110945Z 23014G19KT 13/03 A2959 RMK A01 T01260032  RH  053%=      5-min Rain = 0
KTH1 110946Z 23015KT 13/03 A2959 RMK A01 T01270032  RH  052%=      5-min Rain = 0
KTH1 110947Z 23013G19KT 13/03 A2959 RMK A01 T01270032  RH  052%=      5-min Rain = 0
KTH1 110948Z 23011KT 13/03 A2959 RMK A01 T01280032  RH  052%=      5-min Rain = 0
KTH1 110949Z 23013KT 13/03 A2959 RMK A01 T01270032  RH  052%=      5-min Rain = 0
KTH1 110950Z 23013KT 13/03 A2959 RMK A01 T01270032  RH  052%=      5-min Rain = 0
KTH1 110951Z 23014G19KT 13/03 A2959 RMK A01 T01270032  RH  052%=      5-min Rain = 0
KTH1 110952Z 23012G17KT 13/03 A2959 RMK A01 T01270031  RH  052%=      5-min Rain = 0
KTH1 110953Z 23012KT 13/03 A2959 RMK A01 T01270031  RH  052%=      5-min Rain = 0
KTH1 110954Z 23013KT 13/03 A2959 RMK A01 T01270031  RH  052%=      5-min Rain = 0
KTH1 110955Z 22011G17KT 13/03 A296 RMK A01 T01270031  RH  052%=      5-min Rain = 0
KTH1 110956Z 23011G18KT 13/03 A296 RMK A01 T01260031  RH  052%=      5-min Rain = 0
KTH1 110957Z 22012KT 13/03 A2959 RMK A01 T01260031  RH  052%=      5-min Rain = 0
KTH1 110958Z 23012KT 13/03 A296 RMK A01 T01260031  RH  052%=      5-min Rain = 0
KTH1 110959Z 22014G20KT 13/03 A296 RMK A01 T01260031  RH  052%=      5-min Rain = 0
KTH1 111000Z 23013KT 13/03 A296 RMK A01 T01250031  RH  052%=      5-min Rain = 0
KTH1 111001Z 22010KT 13/03 A296 RMK A01 T01250031  RH  052%=      5-min Rain = 0
KTH1 111002Z 22010KT 13/03 A296 RMK A01 T01250031  RH  052%=      5-min Rain = 0
KTH1 111003Z 23013KT 12/03 A296 RMK A01 T01240030  RH  053%=      5-min Rain = 0
KTH1 111004Z 22012KT 12/03 A296 RMK A01 T01240030  RH  053%=      5-min Rain = 0
KTH1 111005Z 22010KT 12/03 A296 RMK A01 T01240030  RH  053%=      5-min Rain = 0
KTH1 111006Z 23011G16KT 12/03 A296 RMK A01 T01240031  RH  053%=      5-min Rain = 0
KTH1 111007Z 23011KT 12/03 A296 RMK A01 T01240031  RH  053%=      5-min Rain = 0
KTH1 111008Z 23012KT 12/03 A296 RMK A01 T01230030  RH  053%=      5-min Rain = 0
KTH1 111009Z 22012G17KT 12/03 A296 RMK A01 T01230030  RH  053%=      5-min Rain = 0
KTH1 111010Z 22010KT 12/03 A296 RMK A01 T01230030  RH  053%=      5-min Rain = 0
KTH1 111011Z 23013KT 12/03 A296 RMK A01 T01230030  RH  053%=      5-min Rain = 0
KTH1 111012Z 22013KT 12/03 A296 RMK A01 T01230030  RH  053%=      5-min Rain = 0
KTH1 111013Z 22013KT 12/03 A296 RMK A01 T01230030  RH  053%=      5-min Rain = 0
KTH1 111014Z 23011KT 12/03 A296 RMK A01 T01230029  RH  053%=      5-min Rain = 0
KTH1 111015Z 23011KT 12/03 A296 RMK A01 T01230030  RH  053%=      5-min Rain = 0
KTH1 111016Z 23010KT 12/03 A2961 RMK A01 T01230030  RH  053%=      5-min Rain = 0
KTH1 111017Z 23010KT 12/03 A2961 RMK A01 T01220030  RH  053%=      5-min Rain = 0
KTH1 111018Z 23011G17KT 12/03 A2961 RMK A01 T01210030  RH  053%=      5-min Rain = 0
KTH1 111019Z 22011KT 12/03 A2961 RMK A01 T01200029  RH  054%=      5-min Rain = 0
KTH1 111020Z 23011KT 12/03 A2961 RMK A01 T01210029  RH  054%=      5-min Rain = 0
KTH1 111021Z 23011KT 12/03 A2961 RMK A01 T01210029  RH  053%=      5-min Rain = 0
KTH1 111022Z 23012KT 12/03 A2961 RMK A01 T01210030  RH  053%=      5-min Rain = 0
KTH1 111023Z 23012KT 12/03 A2961 RMK A01 T01210029  RH  053%=      5-min Rain = 0
KTH1 111024Z 23012KT 12/03 A2961 RMK A01 T01220029  RH  053%=      5-min Rain = 0
KTH1 111025Z 23012KT 12/03 A2961 RMK A01 T01220029  RH  053%=      5-min Rain = 0
KTH1 111026Z 23011KT 12/03 A2961 RMK A01 T01220030  RH  053%=      5-min Rain = 0
KTH1 111027Z 23012KT 12/03 A2961 RMK A01 T01210029  RH  053%=      5-min Rain = 0
KTH1 111028Z 23012KT 12/03 A2961 RMK A01 T01210029  RH  053%=      5-min Rain = 0
KTH1 111029Z 23013KT 12/03 A2961 RMK A01 T01210029  RH  053%=      5-min Rain = 0
KTH1 111030Z 24013KT 12/03 A2961 RMK A01 T01210029  RH  053%=      5-min Rain = 0
KTH1 111031Z 23013KT 12/03 A2961 RMK A01 T01220029  RH  053%=      5-min Rain = 0
KTH1 111032Z 23012G18KT 12/03 A296 RMK A01 T01220029  RH  053%=      5-min Rain = 0
KTH1 111033Z 23016KT 12/03 A296 RMK A01 T01220028  RH  053%=      5-min Rain = 0
KTH1 111034Z 23012G18KT 12/03 A296 RMK A01 T01230028  RH  052%=      5-min Rain = 0
KTH1 111035Z 23013KT 12/03 A296 RMK A01 T01240028  RH  052%=      5-min Rain = 0
KTH1 111036Z 23012G18KT 12/03 A296 RMK A01 T01240028  RH  052%=      5-min Rain = 0
KTH1 111037Z 23013KT 12/03 A296 RMK A01 T01240028  RH  052%=      5-min Rain = 0
KTH1 111038Z 24013KT 12/03 A296 RMK A01 T01240028  RH  052%=      5-min Rain = 0
KTH1 111039Z 23011KT 12/03 A296 RMK A01 T01240028  RH  052%=      5-min Rain = 0
KTH1 111040Z 23014KT 12/03 A296 RMK A01 T01230028  RH  052%=      5-min Rain = 0
KTH1 111041Z 23013G18KT 12/03 A296 RMK A01 T01230028  RH  052%=      5-min Rain = 0
KTH1 111042Z 23014G19KT 12/03 A296 RMK A01 T01240028  RH  052%=      5-min Rain = 0
KTH1 111043Z 24014KT 13/03 A296 RMK A01 T01250028  RH  051%=      5-min Rain = 0
KTH1 111044Z 23012KT 13/03 A296 RMK A01 T01260028  RH  051%=      5-min Rain = 0
KTH1 111045Z 23011KT 13/03 A296 RMK A01 T01260028  RH  051%=      5-min Rain = 0
KTH1 111046Z 23010KT 13/03 A296 RMK A01 T01260028  RH  051%=      5-min Rain = 0
KTH1 111047Z 23011KT 13/03 A296 RMK A01 T01250028  RH  051%=      5-min Rain = 0
KTH1 111048Z 23014G19KT 13/03 A296 RMK A01 T01250027  RH  051%=      5-min Rain = 0
KTH1 111049Z 24014G19KT 13/03 A296 RMK A01 T01260027  RH  051%=      5-min Rain = 0
KTH1 111050Z 24012KT 13/03 A296 RMK A01 T01260028  RH  051%=      5-min Rain = 0
KTH1 111051Z 24013KT 13/03 A296 RMK A01 T01260029  RH  051%=      5-min Rain = 0
KTH1 111052Z 24014KT 13/03 A296 RMK A01 T01260027  RH  051%=      5-min Rain = 0
KTH1 111053Z 24014KT 13/03 A296 RMK A01 T01270028  RH  051%=      5-min Rain = 0
KTH1 111054Z 24014KT 13/03 A296 RMK A01 T01270028  RH  051%=      5-min Rain = 0
KTH1 111055Z 24013KT 13/03 A296 RMK A01 T01270027  RH  051%=      5-min Rain = 0
KTH1 111056Z 24012KT 13/03 A296 RMK A01 T01270028  RH  051%=      5-min Rain = 0
KTH1 111057Z 24013KT 13/03 A296 RMK A01 T01270028  RH  051%=      5-min Rain = 0
KTH1 111058Z 24013KT 13/03 A296 RMK A01 T01270027  RH  050%=      5-min Rain = 0
KTH1 111059Z 23012KT 13/03 A296 RMK A01 T01280027  RH  050%=      5-min Rain = 0
KTH1 111100Z 23014KT 13/03 A296 RMK A01 T01280027  RH  050%=      5-min Rain = 0
KTH1 111101Z 24013G18KT 13/03 A296 RMK A01 T01280027  RH  050%=      5-min Rain = 0
KTH1 111102Z 24013KT 13/03 A296 RMK A01 T01280028  RH  051%=      5-min Rain = 0
KTH1 111103Z 24013KT 13/03 A296 RMK A01 T01270028  RH  051%=      5-min Rain = 0
KTH1 111104Z 24013KT 13/03 A296 RMK A01 T01260028  RH  051%=      5-min Rain = 0
KTH1 111105Z 24013KT 13/03 A296 RMK A01 T01260029  RH  052%=      5-min Rain = 0
KTH1 111106Z 24015KT 13/03 A296 RMK A01 T01250027  RH  051%=      5-min Rain = 0
KTH1 111107Z 25014KT 13/03 A296 RMK A01 T01260028  RH  051%=      5-min Rain = 0
KTH1 111108Z 25018KT 13/03 A296 RMK A01 T01260030  RH  052%=      5-min Rain = 0
KTH1 111109Z 25017G22KT 13/03 A296 RMK A01 T01250029  RH  052%=      5-min Rain = 0
KTH1 111110Z 25017KT 13/03 A296 RMK A01 T01250031  RH  053%=      5-min Rain = 0
KTH1 111111Z 25017KT 12/03 A296 RMK A01 T01240031  RH  053%=      5-min Rain = 0
KTH1 111112Z 25017KT 12/03 A296 RMK A01 T01240031  RH  053%=      5-min Rain = 0
KTH1 111113Z 25018KT 12/03 A296 RMK A01 T01230031  RH  053%=      5-min Rain = 0
KTH1 111114Z 25018KT 12/03 A296 RMK A01 T01230030  RH  053%=      5-min Rain = 0
KTH1 111115Z 25025G31KT 12/03 A296 RMK A01 T01240030  RH  053%=      5-min Rain = 0
KTH1 111116Z 26022G29KT 13/03 A296 RMK A01 T01270030  RH  052%=      5-min Rain = 0
KTH1 111117Z 25020KT 13/03 A296 RMK A01 T01270031  RH  052%=      5-min Rain = 0
KTH1 111118Z 25020KT 13/03 A296 RMK A01 T01270031  RH  052%=      5-min Rain = 0
KTH1 111119Z 25021KT 13/03 A296 RMK A01 T01270031  RH  052%=      5-min Rain = 0
KTH1 111120Z 25020KT 13/03 A296 RMK A01 T01260031  RH  052%=      5-min Rain = 0
KTH1 111121Z 26020KT 13/03 A296 RMK A01 T01250031  RH  053%=      5-min Rain = 0
KTH1 111122Z 25018KT 13/03 A296 RMK A01 T01250031  RH  053%=      5-min Rain = 0
KTH1 111123Z 26019KT 12/03 A296 RMK A01 T01240031  RH  053%=      5-min Rain = 0
KTH1 111124Z 26021KT 12/03 A2959 RMK A01 T01240030  RH  053%=      5-min Rain = 0
KTH1 111125Z 26018G25KT 13/03 A296 RMK A01 T01250030  RH  053%=      5-min Rain = 0
KTH1 111126Z 26019KT 12/03 A2959 RMK A01 T01240031  RH  053%=      5-min Rain = 0
KTH1 111127Z 25020KT 12/03 A2959 RMK A01 T01240030  RH  052%=      5-min Rain = 0
KTH1 111128Z 26020KT 12/03 A296 RMK A01 T01240030  RH  053%=      5-min Rain = 0
KTH1 111129Z 26017KT 12/03 A296 RMK A01 T01240031  RH  053%=      5-min Rain = 0
KTH1 111130Z 26019KT 12/03 A296 RMK A01 T01230032  RH  054%=      5-min Rain = 0
KTH1 111131Z 25020KT 12/03 A296 RMK A01 T01220032  RH  054%=      5-min Rain = 0
KTH1 111132Z 26017KT 12/03 A296 RMK A01 T01220032  RH  054%=      5-min Rain = 0
KTH1 111133Z 26020KT 12/03 A296 RMK A01 T01210033  RH  055%=      5-min Rain = 0
KTH1 111134Z 26018KT 12/03 A296 RMK A01 T01210030  RH  054%=      5-min Rain = 0
KTH1 111135Z 26020KT 12/03 A296 RMK A01 T01220031  RH  054%=      5-min Rain = 0
KTH1 111136Z 26018KT 12/03 A296 RMK A01 T01220030  RH  053%=      5-min Rain = 0
KTH1 111137Z 26020KT 12/03 A296 RMK A01 T01220031  RH  054%=      5-min Rain = 0
KTH1 111138Z 26021KT 12/03 A296 RMK A01 T01220029  RH  053%=      5-min Rain = 0
KTH1 111139Z 26018KT 12/03 A296 RMK A01 T01230029  RH  052%=      5-min Rain = 0
KTH1 111140Z 26017KT 12/03 A296 RMK A01 T01230029  RH  053%=      5-min Rain = 0
KTH1 111141Z 26017KT 12/03 A296 RMK A01 T01230030  RH  053%=      5-min Rain = 0
KTH1 111142Z 26019KT 12/03 A296 RMK A01 T01220029  RH  053%=      5-min Rain = 0
KTH1 111143Z 27019KT 12/03 A296 RMK A01 T01220028  RH  052%=      5-min Rain = 0
KTH1 111144Z 26017KT 12/03 A296 RMK A01 T01220028  RH  053%=      5-min Rain = 0
KTH1 111145Z 26020KT 12/03 A296 RMK A01 T01230029  RH  053%=      5-min Rain = 0
KTH1 111146Z 27018KT 12/03 A296 RMK A01 T01230027  RH  052%=      5-min Rain = 0
KTH1 111147Z 27019G24KT 12/03 A296 RMK A01 T01230029  RH  052%=      5-min Rain = 0
KTH1 111148Z 27020KT 12/03 A296 RMK A01 T01220028  RH  052%=      5-min Rain = 0
KTH1 111149Z 26017G22KT 12/03 A2961 RMK A01 T01220029  RH  053%=      5-min Rain = 0
KTH1 111150Z 26019G27KT 12/03 A2961 RMK A01 T01220029  RH  053%=      5-min Rain = 0
KTH1 111151Z 27021KT 12/03 A2961 RMK A01 T01210028  RH  053%=      5-min Rain = 0
KTH1 111152Z 27017KT 12/03 A2961 RMK A01 T01210028  RH  053%=      5-min Rain = 0
KTH1 111153Z 27021G27KT 12/03 A2961 RMK A01 T01210029  RH  053%=      5-min Rain = 0
KTH1 111154Z 27018G23KT 12/03 A2961 RMK A01 T01200027  RH  053%=      5-min Rain = 0
KTH1 111155Z 27020G25KT 12/03 A2961 RMK A01 T01200027  RH  053%=      5-min Rain = 0
KTH1 111156Z 27024KT 12/03 A2961 RMK A01 T01200028  RH  053%=      5-min Rain = 0
KTH1 111157Z 27021G30KT 12/03 A2962 RMK A01 T01200027  RH  053%=      5-min Rain = 0
KTH1 111158Z 27022G27KT 12/03 A2962 RMK A01 T01200028  RH  053%=      5-min Rain = 0
KTH1 111159Z 27019G24KT 12/03 A2962 RMK A01 T01200028  RH  053%=      5-min Rain = 0
KTH1 111200Z 27019KT 12/03 A2962 RMK A01 T01180028  RH  054%=      5-min Rain = 0
KTH1 111201Z 27019KT 12/03 A2962 RMK A01 T01180027  RH  054%=      5-min Rain = 0
KTH1 111202Z 27020KT 12/03 A2962 RMK A01 T01170028  RH  054%=      5-min Rain = 0
KTH1 111203Z 27020G25KT 12/03 A2963 RMK A01 T01160028  RH  054%=      5-min Rain = 0
KTH1 111204Z 27019KT 12/03 A2963 RMK A01 T01150027  RH  055%=      5-min Rain = 0
KTH1 111205Z 28019G24KT 12/03 A2963 RMK A01 T01150027  RH  055%=      5-min Rain = 0
KTH1 111206Z 28019KT 11/03 A2963 RMK A01 T01140027  RH  055%=      5-min Rain = 0
KTH1 111207Z 28020KT 11/03 A2963 RMK A01 T01140026  RH  055%=      5-min Rain = 0
KTH1 111208Z 29020G26KT 11/03 A2963 RMK A01 T01140026  RH  055%=      5-min Rain = 0
KTH1 111209Z 29019KT 11/03 A2963 RMK A01 T01140026  RH  055%=      5-min Rain = 0
KTH1 111210Z 28018KT 11/03 A2963 RMK A01 T01130025  RH  055%=      5-min Rain = 0
KTH1 111211Z 30021KT 11/02 A2964 RMK A01 T01120024  RH  055%=      5-min Rain = 0
KTH1 111212Z 30021G26KT 11/02 A2964 RMK A01 T01120023  RH  054%=      5-min Rain = 0
KTH1 111213Z 29020G25KT 11/02 A2964 RMK A01 T01120022  RH  054%=      5-min Rain = 0
KTH1 111214Z 29025KT 11/02 A2964 RMK A01 T01110021  RH  054%=      5-min Rain = 0
KTH1 111215Z 30025G30KT 11/02 A2964 RMK A01 T01100021  RH  054%=      5-min Rain = 0
KTH1 111216Z 29023G31KT 11/02 A2964 RMK A01 T01100020  RH  054%=      5-min Rain = 0
KTH1 111217Z 29025KT 11/02 A2964 RMK A01 T01090019  RH  054%=      5-min Rain = 0
KTH1 111218Z 30022G27KT 11/02 A2964 RMK A01 T01090019  RH  054%=      5-min Rain = 0
KTH1 111219Z 29025G32KT 11/02 A2965 RMK A01 T01080020  RH  055%=      5-min Rain = 0
KTH1 111220Z 30023G28KT 11/02 A2965 RMK A01 T01070020  RH  055%=      5-min Rain = 0
KTH1 111221Z 29021G26KT 11/02 A2965 RMK A01 T01060020  RH  055%=      5-min Rain = 0
KTH1 111222Z 29030G35KT 11/02 A2965 RMK A01 T01060018  RH  055%=      5-min Rain = 0
KTH1 111223Z 29025G33KT 11/02 A2965 RMK A01 T01050020  RH  055%=      5-min Rain = 0
KTH1 111224Z 30029G34KT 10/02 A2965 RMK A01 T01030018  RH  056%=      5-min Rain = 0
KTH1 111225Z 29027KT 10/02 A2966 RMK A01 T01020018  RH  056%=      5-min Rain = 0
KTH1 111226Z 30026KT 10/02 A2966 RMK A01 T01010018  RH  056%=      5-min Rain = 0
KTH1 111227Z 30027KT 10/02 A2966 RMK A01 T01000018  RH  056%=      5-min Rain = 0
KTH1 111228Z 30027G34KT 10/02 A2966 RMK A01 T00990017  RH  057%=      5-min Rain = 0
KTH1 111229Z 30027G32KT 10/02 A2966 RMK A01 T00980019  RH  058%=      5-min Rain = 0
KTH1 111230Z 30025KT 10/02 A2967 RMK A01 T00960019  RH  058%=      5-min Rain = 0
KTH1 111231Z 30025G33KT 10/02 A2967 RMK A01 T00950020  RH  060%=      5-min Rain = 0
KTH1 111232Z 30026KT 09/02 A2967 RMK A01 T00940020  RH  060%=      5-min Rain = 0
KTH1 111233Z 31025G30KT 09/02 A2967 RMK A01 T00930019  RH  060%=      5-min Rain = 0
KTH1 111234Z 30030G35KT 09/02 A2967 RMK A01 T00930018  RH  060%=      5-min Rain = 0
KTH1 111235Z 31025G31KT 09/02 A2968 RMK A01 T00920019  RH  060%=      5-min Rain = 0
KTH1 111236Z 30024G29KT 09/02 A2968 RMK A01 T00910020  RH  061%=      5-min Rain = 0
KTH1 111237Z 31025G30KT 09/02 A2968 RMK A01 T00900020  RH  061%=      5-min Rain = 0
KTH1 111238Z 31022G28KT 09/02 A2969 RMK A01 T00890020  RH  062%=      5-min Rain = 0
KTH1 111239Z 31025KT 09/02 A2969 RMK A01 T00890019  RH  062%=      5-min Rain = 0
KTH1 111240Z 31024G30KT 09/02 A2969 RMK A01 T00880020  RH  062%=      5-min Rain = 0
KTH1 111241Z 31026KT 09/02 A2969 RMK A01 T00870020  RH  062%=      5-min Rain = 0
KTH1 111242Z 31025G30KT 09/02 A297 RMK A01 T00870020  RH  063%=      5-min Rain = 0
KTH1 111243Z 31023G30KT 09/02 A297 RMK A01 T00870020  RH  063%=      5-min Rain = 0
KTH1 111244Z 31022G28KT 09/02 A297 RMK A01 T00860020  RH  063%=      5-min Rain = 0
KTH1 111245Z 30020KT 09/02 A2971 RMK A01 T00860021  RH  064%=      5-min Rain = 0
KTH1 111246Z 30022KT 09/02 A2971 RMK A01 T00850020  RH  063%=      5-min Rain = 0
KTH1 111247Z 30022KT 09/02 A2971 RMK A01 T00850020  RH  064%=      5-min Rain = 0
KTH1 111248Z 31016G22KT 08/02 A2971 RMK A01 T00840020  RH  064%=      5-min Rain = 0
KTH1 111249Z 31014KT 08/02 A2971 RMK A01 T00840021  RH  065%=      5-min Rain = 0
KTH1 111250Z 31019G24KT 08/02 A2972 RMK A01 T00830020  RH  064%=      5-min Rain = 0
KTH1 111251Z 31020G25KT 08/02 A2972 RMK A01 T00820020  RH  065%=      5-min Rain = 0
KTH1 111252Z 32020G25KT 08/02 A2972 RMK A01 T00820019  RH  064%=      5-min Rain = 0
KTH1 111253Z 31020KT 08/02 A2972 RMK A01 T00820018  RH  064%=      5-min Rain = 0
KTH1 111254Z 31023G30KT 08/02 A2972 RMK A01 T00810018  RH  065%=      5-min Rain = 0
KTH1 111255Z 31030G36KT 08/02 A2972 RMK A01 T00800018  RH  065%=      5-min Rain = 0
KTH1 111256Z 31024KT 08/02 A2972 RMK A01 T00800016  RH  064%=      5-min Rain = 0
KTH1 111257Z 31025KT 08/02 A2972 RMK A01 T00790016  RH  064%=      5-min Rain = 0
KTH1 111258Z 32021KT 08/02 A2973 RMK A01 T00780015  RH  064%=      5-min Rain = 0
KTH1 111259Z 32023KT 08/02 A2973 RMK A01 T00780015  RH  065%=      5-min Rain = 0
KTH1 111300Z 32022G27KT 08/01 A2973 RMK A01 T00770014  RH  064%=      5-min Rain = 0
KTH1 111301Z 31024KT 08/01 A2973 RMK A01 T00770013  RH  064%=      5-min Rain = 0
KTH1 111302Z 32023G28KT 08/01 A2973 RMK A01 T00760013  RH  064%=      5-min Rain = 0
KTH1 111303Z 32018G24KT 08/01 A2974 RMK A01 T00760013  RH  064%=      5-min Rain = 0
KTH1 111304Z 31018KT 08/01 A2974 RMK A01 T00760014  RH  065%=      5-min Rain = 0
KTH1 111305Z 31020G27KT 08/01 A2974 RMK A01 T00760013  RH  065%=      5-min Rain = 0
KTH1 111306Z 31021KT 08/01 A2974 RMK A01 T00750014  RH  065%=      5-min Rain = 0
KTH1 111307Z 31019KT 08/01 A2974 RMK A01 T00750014  RH  065%=      5-min Rain = 0
KTH1 111308Z 32019G25KT 08/01 A2974 RMK A01 T00750014  RH  065%=      5-min Rain = 0
KTH1 111309Z 31016G23KT 07/01 A2974 RMK A01 T00740014  RH  065%=      5-min Rain = 0
KTH1 111310Z 32019G24KT 07/01 A2974 RMK A01 T00740013  RH  065%=      5-min Rain = 0
KTH1 111311Z 32019G24KT 07/01 A2974 RMK A01 T00740013  RH  066%=      5-min Rain = 0
KTH1 111312Z 32019KT 07/01 A2974 RMK A01 T00730013  RH  065%=      5-min Rain = 0
KTH1 111313Z 32015KT 07/01 A2975 RMK A01 T00730013  RH  066%=      5-min Rain = 0
KTH1 111314Z 32015KT 07/01 A2975 RMK A01 T00730013  RH  066%=      5-min Rain = 0
KTH1 111315Z 32018KT 07/01 A2975 RMK A01 T00720014  RH  066%=      5-min Rain = 0
KTH1 111316Z 32016KT 07/01 A2975 RMK A01 T00720013  RH  066%=      5-min Rain = 0
KTH1 111317Z 33020G26KT 07/01 A2975 RMK A01 T00710013  RH  066%=      5-min Rain = 0
KTH1 111318Z 32023G29KT 07/01 A2976 RMK A01 T00710010  RH  065%=      5-min Rain = 0
KTH1 111319Z 32025G31KT 07/01 A2976 RMK A01 T00700009  RH  065%=      5-min Rain = 0
KTH1 111320Z 32020G27KT 07/01 A2976 RMK A01 T00690008  RH  065%=      5-min Rain = 0
KTH1 111321Z 32020KT 07/01 A2976 RMK A01 T00680008  RH  066%=      5-min Rain = 0
KTH1 111322Z 32019KT 07/01 A2977 RMK A01 T00670006  RH  065%=      5-min Rain = 0
KTH1 111323Z 32021G26KT 07/01 A2977 RMK A01 T00650006  RH  066%=      5-min Rain = 0
KTH1 111324Z 32018G23KT 06/01 A2977 RMK A01 T00640005  RH  066%=      5-min Rain = 0
KTH1 111325Z 33019G24KT 06/00 A2977 RMK A01 T00630003  RH  065%=      5-min Rain = 0
KTH1 111326Z 33019G24KT 06/00 A2978 RMK A01 T00620001  RH  065%=      5-min Rain = 0
KTH1 111327Z 33018KT 06/00 A2978 RMK A01 T00610001  RH  065%=      5-min Rain = 0
KTH1 111328Z 32018G23KT 06/00 A2978 RMK A01 T00610000  RH  065%=      5-min Rain = 0
KTH1 111329Z 32020G25KT 06/00 A2978 RMK A01 T006000-0  RH  065%=      5-min Rain = 0
KTH1 111330Z 32017KT 06/00 A2978 RMK A01 T006000-0  RH  065%=      5-min Rain = 0
KTH1 111331Z 33016KT 06/00 A2978 RMK A01 T00590000  RH  066%=      5-min Rain = 0
KTH1 111332Z 33018G26KT 06/00 A2978 RMK A01 T00590000  RH  066%=      5-min Rain = 0
KTH1 111333Z 33018KT 06/M00 A2978 RMK A01 T00581001  RH  066%=      5-min Rain = 0
KTH1 111334Z 33018KT 06/M00 A2978 RMK A01 T00581001  RH  066%=      5-min Rain = 0
KTH1 111335Z 32017KT 06/M00 A2979 RMK A01 T00581001  RH  066%=      5-min Rain = 0
KTH1 111336Z 32019KT 06/M00 A2978 RMK A01 T00571002  RH  066%=      5-min Rain = 0
KTH1 111337Z 32015KT 06/M00 A2979 RMK A01 T00571002  RH  066%=      5-min Rain = 0
KTH1 111338Z 32016G21KT 06/00 A2979 RMK A01 T005700-0  RH  066%=      5-min Rain = 0
KTH1 111339Z 33015KT 06/00 A2979 RMK A01 T005700-0  RH  067%=      5-min Rain = 0
KTH1 111340Z 32014KT 06/00 A2979 RMK A01 T00570000  RH  067%=      5-min Rain = 0
KTH1 111341Z 33014KT 06/00 A2979 RMK A01 T005700-0  RH  067%=      5-min Rain = 0
KTH1 111342Z 33015KT 06/00 A298 RMK A01 T005700-0  RH  067%=      5-min Rain = 0
KTH1 111343Z 33016G22KT 06/M00 A298 RMK A01 T00561001  RH  066%=      5-min Rain = 0
KTH1 111344Z 33018G23KT 06/M00 A298 RMK A01 T00561003  RH  066%=      5-min Rain = 0
KTH1 111345Z 33015KT 06/M00 A298 RMK A01 T00561003  RH  066%=      5-min Rain = 0
KTH1 111346Z 33014KT 06/M00 A298 RMK A01 T00561002  RH  066%=      5-min Rain = 0
KTH1 111347Z 31017KT 06/M00 A298 RMK A01 T00561002  RH  067%=      5-min Rain = 0
KTH1 111348Z 32019G26KT 06/M00 A298 RMK A01 T00561001  RH  067%=      5-min Rain = 0
KTH1 111349Z 33022G27KT 06/M00 A298 RMK A01 T00551004  RH  066%=      5-min Rain = 0
KTH1 111350Z 33020G25KT 05/M01 A298 RMK A01 T00541005  RH  065%=      5-min Rain = 0
KTH1 111351Z 32020G27KT 05/M01 A298 RMK A01 T00541005  RH  066%=      5-min Rain = 0
KTH1 111352Z 33017G25KT 05/M01 A298 RMK A01 T00541006  RH  065%=      5-min Rain = 0
KTH1 111353Z 33021KT 05/M01 A298 RMK A01 T00531007  RH  065%=      5-min Rain = 0
KTH1 111354Z 33021G29KT 05/M01 A298 RMK A01 T00521008  RH  065%=      5-min Rain = 0
KTH1 111355Z 33020G27KT 05/M01 A298 RMK A01 T00521008  RH  065%=      5-min Rain = 0
KTH1 111356Z 33020KT 05/M01 A298 RMK A01 T00521009  RH  065%=      5-min Rain = 0
KTH1 111357Z 33023KT 05/M01 A2981 RMK A01 T00521009  RH  065%=      5-min Rain = 0
KTH1 111358Z 32022G29KT 05/M01 A298 RMK A01 T00521009  RH  065%=      5-min Rain = 0
KTH1 111359Z 33018G26KT 05/M01 A2981 RMK A01 T00521008  RH  065%=      5-min Rain = 0
KTH1 111400Z 33023G28KT 05/M01 A2981 RMK A01 T00521009  RH  065%=      5-min Rain = 0
KTH1 111401Z 33019G26KT 05/M01 A2981 RMK A01 T00521009  RH  065%=      5-min Rain = 0
KTH1 111402Z 33019KT 05/M01 A2981 RMK A01 T00521009  RH  065%=      5-min Rain = 0
KTH1 111403Z 33018KT 05/M01 A2981 RMK A01 T00521009  RH  065%=      5-min Rain = 0
KTH1 111404Z 33018G24KT 05/M01 A2982 RMK A01 T00521008  RH  065%=      5-min Rain = 0
KTH1 111405Z 33021G26KT 05/M01 A2982 RMK A01 T00521009  RH  065%=      5-min Rain = 0
KTH1 111406Z 34017KT 05/M01 A2982 RMK A01 T00521010  RH  064%=      5-min Rain = 0
KTH1 111407Z 33023G29KT 05/M01 A2982 RMK A01 T00521010  RH  064%=      5-min Rain = 0
KTH1 111408Z 32022G30KT 05/M01 A2982 RMK A01 T00521010  RH  064%=      5-min Rain = 0
KTH1 111409Z 33017G22KT 05/M01 A2983 RMK A01 T00511010  RH  065%=      5-min Rain = 0
KTH1 111410Z 33021G27KT 05/M01 A2983 RMK A01 T00511010  RH  065%=      5-min Rain = 0
KTH1 111411Z 33017G22KT 05/M01 A2983 RMK A01 T00511010  RH  065%=      5-min Rain = 0
KTH1 111412Z 33016G22KT 05/M01 A2983 RMK A01 T00511010  RH  065%=      5-min Rain = 0
KTH1 111413Z 34022G28KT 05/M01 A2983 RMK A01 T00511010  RH  065%=      5-min Rain = 0
KTH1 111414Z 33018G23KT 05/M01 A2983 RMK A01 T00511010  RH  065%=      5-min Rain = 0
KTH1 111415Z 33019G26KT 05/M01 A2983 RMK A01 T00501010  RH  065%=      5-min Rain = 0
KTH1 111416Z 33019G25KT 05/M01 A2983 RMK A01 T00511010  RH  065%=      5-min Rain = 0
KTH1 111417Z 34023G30KT 05/M01 A2984 RMK A01 T00501010  RH  065%=      5-min Rain = 0
KTH1 111418Z 32022G29KT 05/M01 A2984 RMK A01 T00501011  RH  065%=      5-min Rain = 0
KTH1 111419Z 32023G28KT 05/M01 A2984 RMK A01 T00511009  RH  065%=      5-min Rain = 0
KTH1 111420Z 32022KT 05/M01 A2984 RMK A01 T00501010  RH  065%=      5-min Rain = 0
KTH1 111421Z 33021G28KT 05/M01 A2984 RMK A01 T00501011  RH  065%=      5-min Rain = 0
KTH1 111422Z 32021G27KT 05/M01 A2984 RMK A01 T00491013  RH  064%=      5-min Rain = 0
KTH1 111423Z 34020G31KT 05/M01 A2984 RMK A01 T00491014  RH  064%=      5-min Rain = 0
KTH1 111424Z 34018G27KT 05/M01 A2985 RMK A01 T00491014  RH  064%=      5-min Rain = 0
KTH1 111425Z 34016G23KT 05/M01 A2985 RMK A01 T00491014  RH  064%=      5-min Rain = 0
KTH1 111426Z 33017G22KT 05/M02 A2985 RMK A01 T00481015  RH  064%=      5-min Rain = 0
KTH1 111427Z 34016G22KT 05/M02 A2985 RMK A01 T00481015  RH  064%=      5-min Rain = 0
KTH1 111428Z 34014KT 05/M02 A2985 RMK A01 T00481015  RH  064%=      5-min Rain = 0
KTH1 111429Z 34016G23KT 05/M01 A2985 RMK A01 T00481014  RH  064%=      5-min Rain = 0
KTH1 111430Z 34014G20KT 05/M02 A2985 RMK A01 T00481015  RH  064%=      5-min Rain = 0
KTH1 111431Z 34015G20KT 05/M02 A2985 RMK A01 T00481015  RH  064%=      5-min Rain = 0
KTH1 111432Z 34017G22KT 05/M02 A2985 RMK A01 T00481015  RH  064%=      5-min Rain = 0
KTH1 111433Z 34015KT 05/M02 A2986 RMK A01 T00481015  RH  064%=      5-min Rain = 0
KTH1 111434Z 33013G22KT 05/M02 A2986 RMK A01 T00481015  RH  064%=      5-min Rain = 0
KTH1 111435Z 33016G21KT 05/M01 A2986 RMK A01 T00481014  RH  064%=      5-min Rain = 0
KTH1 111436Z 32020KT 05/M01 A2986 RMK A01 T00481014  RH  064%=      5-min Rain = 0
KTH1 111437Z 32016KT 05/M02 A2986 RMK A01 T00481015  RH  064%=      5-min Rain = 0
KTH1 111438Z 33012G17KT 05/M01 A2986 RMK A01 T00481014  RH  064%=      5-min Rain = 0
KTH1 111439Z 33013KT 05/M01 A2986 RMK A01 T00491014  RH  064%=      5-min Rain = 0
KTH1 111440Z 33012KT 05/M01 A2986 RMK A01 T00491014  RH  064%=      5-min Rain = 0
KTH1 111441Z 32016G21KT 05/M01 A2986 RMK A01 T00491014  RH  064%=      5-min Rain = 0
KTH1 111442Z 33017G23KT 05/M01 A2986 RMK A01 T00491014  RH  064%=      5-min Rain = 0
KTH1 111443Z 33016KT 05/M01 A2987 RMK A01 T00491014  RH  064%=      5-min Rain = 0
KTH1 111444Z 32020KT 05/M01 A2987 RMK A01 T00491014  RH  064%=      5-min Rain = 0
KTH1 111445Z 33017G22KT 05/M01 A2987 RMK A01 T00491014  RH  064%=      5-min Rain = 0
KTH1 111446Z 32020G28KT 05/M01 A2987 RMK A01 T00491013  RH  064%=      5-min Rain = 0
KTH1 111447Z 32022KT 05/M02 A2987 RMK A01 T00481015  RH  063%=      5-min Rain = 0
KTH1 111448Z 32021KT 05/M02 A2987 RMK A01 T00481017  RH  063%=      5-min Rain = 0
KTH1 111449Z 32022G28KT 05/M02 A2987 RMK A01 T00461017  RH  063%=      5-min Rain = 0
KTH1 111450Z 32021G29KT 05/M02 A2987 RMK A01 T00461017  RH  063%=      5-min Rain = 0
KTH1 111451Z 32024KT 05/M02 A2987 RMK A01 T00451020  RH  062%=      5-min Rain = 0
KTH1 111452Z 32022KT 04/M02 A2987 RMK A01 T00441020  RH  063%=      5-min Rain = 0
KTH1 111453Z 32025G31KT 04/M02 A2987 RMK A01 T00441020  RH  063%=      5-min Rain = 0
KTH1 111454Z 32020KT 04/M02 A2987 RMK A01 T00441021  RH  063%=      5-min Rain = 0
KTH1 111455Z 33020KT 04/M02 A2987 RMK A01 T00441022  RH  063%=      5-min Rain = 0
KTH1 111456Z 32020G27KT 04/M02 A2987 RMK A01 T00431022  RH  062%=      5-min Rain = 0
KTH1 111457Z 32022G27KT 04/M02 A2987 RMK A01 T00441021  RH  063%=      5-min Rain = 0
KTH1 111458Z 33022G27KT 04/M02 A2988 RMK A01 T00441022  RH  063%=      5-min Rain = 0
KTH1 111459Z 32022G27KT 04/M02 A2988 RMK A01 T00441022  RH  062%=      5-min Rain = 0
KTH1 111500Z 32023G33KT 04/M02 A2988 RMK A01 T00441022  RH  062%=      5-min Rain = 0
KTH1 111501Z 33023KT 04/M02 A2988 RMK A01 T00441021  RH  063%=      5-min Rain = 0
KTH1 111502Z 32019G24KT 04/M02 A2988 RMK A01 T00441022  RH  062%=      5-min Rain = 0
KTH1 111503Z 32023G29KT 04/M02 A2988 RMK A01 T00441021  RH  063%=      5-min Rain = 0
KTH1 111504Z 32024G31KT 04/M02 A2988 RMK A01 T00441021  RH  063%=      5-min Rain = 0
KTH1 111505Z 33024G29KT 04/M02 A2988 RMK A01 T00441022  RH  062%=      5-min Rain = 0
KTH1 111506Z 32025G32KT 04/M02 A2988 RMK A01 T00431023  RH  062%=      5-min Rain = 0
KTH1 111507Z 32023G29KT 04/M02 A2989 RMK A01 T00421024  RH  062%=      5-min Rain = 0
KTH1 111508Z 33024KT 04/M03 A2989 RMK A01 T00421025  RH  062%=      5-min Rain = 0
KTH1 111509Z 33025G30KT 04/M03 A2989 RMK A01 T00421025  RH  062%=      5-min Rain = 0
KTH1 111510Z 32021G27KT 04/M03 A2989 RMK A01 T00421025  RH  062%=      5-min Rain = 0
KTH1 111511Z 32025G31KT 04/M02 A2989 RMK A01 T00421024  RH  062%=      5-min Rain = 0
KTH1 111512Z 33021G27KT 04/M03 A2989 RMK A01 T00411026  RH  062%=      5-min Rain = 0
KTH1 111513Z 34021G29KT 04/M03 A2989 RMK A01 T00411026  RH  062%=      5-min Rain = 0
KTH1 111514Z 33018G25KT 04/M03 A2989 RMK A01 T00411026  RH  062%=      5-min Rain = 0
KTH1 111515Z 32016KT 04/M03 A2989 RMK A01 T00411025  RH  062%=      5-min Rain = 0
KTH1 111516Z 32017G23KT 04/M02 A2989 RMK A01 T00421024  RH  062%=      5-min Rain = 0
KTH1 111517Z 32022G28KT 04/M03 A2989 RMK A01 T00421025  RH  062%=      5-min Rain = 0
KTH1 111518Z 32023G31KT 04/M03 A2989 RMK A01 T00411027  RH  061%=      5-min Rain = 0
KTH1 111519Z 32024G31KT 04/M03 A2989 RMK A01 T00391029  RH  061%=      5-min Rain = 0
KTH1 111520Z 32023G30KT 04/M03 A299 RMK A01 T00381030  RH  061%=      5-min Rain = 0
KTH1 111521Z 32024G30KT 04/M03 A299 RMK A01 T00381028  RH  062%=      5-min Rain = 0
KTH1 111522Z 32023KT 04/M03 A299 RMK A01 T00371030  RH  062%=      5-min Rain = 0
KTH1 111523Z 32020G29KT 04/M03 A299 RMK A01 T00371029  RH  062%=      5-min Rain = 0
KTH1 111524Z 32023G29KT 04/M03 A299 RMK A01 T00371030  RH  062%=      5-min Rain = 0
KTH1 111525Z 32026G33KT 04/M03 A299 RMK A01 T00371031  RH  061%=      5-min Rain = 0
KTH1 111526Z 32024G32KT 04/M03 A299 RMK A01 T00361032  RH  061%=      5-min Rain = 0
KTH1 111527Z 32023G28KT 04/M03 A299 RMK A01 T00361031  RH  062%=      5-min Rain = 0
KTH1 111528Z 32023G29KT 04/M03 A2991 RMK A01 T00361032  RH  061%=      5-min Rain = 0
KTH1 111529Z 32024G29KT 04/M03 A2991 RMK A01 T00351033  RH  061%=      5-min Rain = 0
KTH1 111530Z 33020G26KT 04/M04 A2991 RMK A01 T00351035  RH  060%=      5-min Rain = 0
KTH1 111531Z 32022G28KT 04/M03 A2991 RMK A01 T00351034  RH  061%=      5-min Rain = 0
KTH1 111532Z 33016G24KT 04/M03 A2991 RMK A01 T00351031  RH  062%=      5-min Rain = 0
KTH1 111533Z 33019G27KT 04/M03 A2991 RMK A01 T00351033  RH  061%=      5-min Rain = 0
KTH1 111534Z 33024G29KT 04/M04 A2991 RMK A01 T00351035  RH  060%=      5-min Rain = 0
KTH1 111535Z 32018G25KT 03/M04 A2991 RMK A01 T00341036  RH  060%=      5-min Rain = 0
KTH1 111536Z 32022G30KT 03/M04 A2991 RMK A01 T00341035  RH  061%=      5-min Rain = 0
KTH1 111537Z 33016G22KT 03/M03 A2992 RMK A01 T00341034  RH  061%=      5-min Rain = 0
KTH1 111538Z 33021G26KT 03/M04 A2992 RMK A01 T00331036  RH  060%=      5-min Rain = 0
KTH1 111539Z 33021G27KT 03/M04 A2992 RMK A01 T00331037  RH  060%=      5-min Rain = 0
KTH1 111540Z 33021G27KT 03/M04 A2992 RMK A01 T00321038  RH  060%=      5-min Rain = 0
KTH1 111541Z 33019KT 03/M04 A2992 RMK A01 T00321038  RH  060%=      5-min Rain = 0
KTH1 111542Z 33022G27KT 03/M04 A2992 RMK A01 T00321037  RH  060%=      5-min Rain = 0
KTH1 111543Z 33025G31KT 03/M04 A2992 RMK A01 T00321037  RH  060%=      5-min Rain = 0
KTH1 111544Z 32024G33KT 03/M04 A2992 RMK A01 T00321037  RH  061%=      5-min Rain = 0
KTH1 111545Z 32025G31KT 03/M04 A2992 RMK A01 T00311035  RH  062%=      5-min Rain = 0
KTH1 111546Z 32024G32KT 03/M04 A2992 RMK A01 T00311036  RH  061%=      5-min Rain = 0
KTH1 111547Z 33023G30KT 03/M04 A2993 RMK A01 T00311037  RH  061%=      5-min Rain = 0
KTH1 111548Z 33020G29KT 03/M04 A2993 RMK A01 T00311037  RH  061%=      5-min Rain = 0
KTH1 111549Z 32020G27KT 03/M04 A2993 RMK A01 T00301037  RH  061%=      5-min Rain = 0
KTH1 111550Z 32021KT 03/M04 A2993 RMK A01 T00301036  RH  062%=      5-min Rain = 0
KTH1 111551Z 33019G30KT 03/M04 A2993 RMK A01 T00301038  RH  061%=      5-min Rain = 0
KTH1 111552Z 33022KT 03/M04 A2993 RMK A01 T00291041  RH  060%=      5-min Rain = 0
KTH1 111553Z 33021G26KT 03/M04 A2993 RMK A01 T00281043  RH  060%=      5-min Rain = 0
KTH1 111554Z 32020G25KT 03/M04 A2994 RMK A01 T00271043  RH  060%=      5-min Rain = 0
KTH1 111555Z 32023KT 03/M04 A2993 RMK A01 T00271043  RH  060%=      5-min Rain = 0
KTH1 111556Z 32020G25KT 03/M04 A2994 RMK A01 T00261042  RH  061%=      5-min Rain = 0
KTH1 111557Z 33023G29KT 03/M04 A2994 RMK A01 T00261044  RH  060%=      5-min Rain = 0
KTH1 111558Z 32022KT 03/M04 A2994 RMK A01 T00251044  RH  060%=      5-min Rain = 0
KTH1 111559Z 32019G25KT 03/M04 A2994 RMK A01 T00251043  RH  061%=      5-min Rain = 0
KTH1 111600Z 33021KT 03/M04 A2994 RMK A01 T00251043  RH  061%=      5-min Rain = 0
KTH1 111601Z 33017G23KT 03/M05 A2995 RMK A01 T00251045  RH  060%=      5-min Rain = 0
KTH1 111602Z 34016KT 02/M05 A2995 RMK A01 T00241045  RH  060%=      5-min Rain = 0
KTH1 111603Z 32015G20KT 03/M05 A2995 RMK A01 T00251045  RH  060%=      5-min Rain = 0
KTH1 111604Z 32018G28KT 02/M04 A2995 RMK A01 T00241044  RH  061%=      5-min Rain = 0
KTH1 111605Z 32022KT 02/M04 A2995 RMK A01 T00241042  RH  061%=      5-min Rain = 0
KTH1 111606Z 32025KT 02/M04 A2995 RMK A01 T00231044  RH  061%=      5-min Rain = 0
KTH1 111607Z 32023G30KT 02/M05 A2995 RMK A01 T00221045  RH  061%=      5-min Rain = 0
KTH1 111608Z 33024G32KT 02/M05 A2995 RMK A01 T00211046  RH  061%=      5-min Rain = 0
KTH1 111609Z 33021G31KT 02/M05 A2996 RMK A01 T00201047  RH  061%=      5-min Rain = 0
KTH1 111610Z 33025G31KT 02/M05 A2996 RMK A01 T00191047  RH  062%=      5-min Rain = 0
KTH1 111611Z 33020G25KT 02/M05 A2996 RMK A01 T00191047  RH  061%=      5-min Rain = 0
KTH1 111612Z 32016G22KT 02/M05 A2996 RMK A01 T00191047  RH  062%=      5-min Rain = 0
KTH1 111613Z 33017G22KT 02/M05 A2996 RMK A01 T00191045  RH  063%=      5-min Rain = 0
KTH1 111614Z 32023G28KT 02/M05 A2996 RMK A01 T00191046  RH  062%=      5-min Rain = 0
KTH1 111615Z 32022KT 02/M05 A2996 RMK A01 T00181046  RH  062%=      5-min Rain = 0
KTH1 111616Z 33017G22KT 02/M05 A2996 RMK A01 T00181047  RH  062%=      5-min Rain = 0
KTH1 111617Z 34019G29KT 02/M05 A2997 RMK A01 T00181047  RH  062%=      5-min Rain = 0
KTH1 111618Z 34014KT 02/M05 A2997 RMK A01 T00181046  RH  063%=      5-min Rain = 0
KTH1 111619Z 34016G25KT 02/M05 A2997 RMK A01 T00181046  RH  063%=      5-min Rain = 0
KTH1 111620Z 33018G25KT 02/M05 A2997 RMK A01 T00181046  RH  062%=      5-min Rain = 0
KTH1 111621Z 32021G28KT 02/M05 A2997 RMK A01 T00181046  RH  062%=      5-min Rain = 0
KTH1 111622Z 33024G29KT 02/M05 A2997 RMK A01 T00181047  RH  062%=      5-min Rain = 0
KTH1 111623Z 33024G29KT 02/M05 A2997 RMK A01 T00181047  RH  062%=      5-min Rain = 0
KTH1 111624Z 33023KT 02/M05 A2997 RMK A01 T00171047  RH  062%=      5-min Rain = 0
KTH1 111625Z 33022KT 02/M05 A2997 RMK A01 T00171046  RH  063%=      5-min Rain = 0
KTH1 111626Z 33024G32KT 02/M05 A2997 RMK A01 T00181046  RH  063%=      5-min Rain = 0
KTH1 111627Z 33018G23KT 02/M05 A2998 RMK A01 T00181046  RH  063%=      5-min Rain = 0
KTH1 111628Z 33020G27KT 02/M05 A2998 RMK A01 T00181046  RH  063%=      5-min Rain = 0
KTH1 111629Z 33024G31KT 02/M05 A2998 RMK A01 T00181047  RH  062%=      5-min Rain = 0
KTH1 111630Z 33018KT 02/M05 A2998 RMK A01 T00181048  RH  062%=      5-min Rain = 0
KTH1 111631Z 34019G25KT 02/M05 A2998 RMK A01 T00171048  RH  062%=      5-min Rain = 0
KTH1 111632Z 35023KT 02/M05 A2998 RMK A01 T00171049  RH  062%=      5-min Rain = 0
KTH1 111633Z 34018G23KT 02/M05 A2998 RMK A01 T00171050  RH  061%=      5-min Rain = 0
KTH1 111634Z 35020G27KT 02/M05 A2998 RMK A01 T00171050  RH  061%=      5-min Rain = 0
KTH1 111635Z 33016KT 02/M05 A2999 RMK A01 T00171050  RH  061%=      5-min Rain = 0
KTH1 111636Z 33014KT 02/M05 A2999 RMK A01 T00171048  RH  062%=      5-min Rain = 0
KTH1 111637Z 33015KT 02/M05 A2999 RMK A01 T00171047  RH  062%=      5-min Rain = 0
KTH1 111638Z 33016KT 02/M05 A2999 RMK A01 T00181048  RH  062%=      5-min Rain = 0
KTH1 111639Z 34018G26KT 02/M05 A2999 RMK A01 T00181048  RH  061%=      5-min Rain = 0
KTH1 111640Z 33021G27KT 02/M05 A2999 RMK A01 T00181050  RH  061%=      5-min Rain = 0
KTH1 111641Z 33023KT 02/M05 A2999 RMK A01 T00171052  RH  060%=      5-min Rain = 0
KTH1 111642Z 33022G29KT 02/M05 A2999 RMK A01 T00171052  RH  060%=      5-min Rain = 0
KTH1 111643Z 34019G24KT 02/M05 A2999 RMK A01 T00161053  RH  060%=      5-min Rain = 0
KTH1 111644Z 33020G25KT 02/M05 A2999 RMK A01 T00161054  RH  060%=      5-min Rain = 0
KTH1 111645Z 33020KT 02/M05 A2999 RMK A01 T00161054  RH  060%=      5-min Rain = 0
KTH1 111646Z 33018G25KT 02/M05 A2999 RMK A01 T00161054  RH  060%=      5-min Rain = 0
KTH1 111647Z 32023KT 02/M05 A2999 RMK A01 T00161052  RH  061%=      5-min Rain = 0
KTH1 111648Z 33020G26KT 02/M05 A30 RMK A01 T00161052  RH  061%=      5-min Rain = 0
KTH1 111649Z 33023KT 02/M05 A30 RMK A01 T00161053  RH  060%=      5-min Rain = 0
KTH1 111650Z 33021G26KT 02/M05 A30 RMK A01 T00151054  RH  060%=      5-min Rain = 0
KTH1 111651Z 33022G28KT 02/M05 A30 RMK A01 T00151054  RH  060%=      5-min Rain = 0
KTH1 111652Z 32018G25KT 02/M05 A30 RMK A01 T00161054  RH  060%=      5-min Rain = 0
KTH1 111653Z 33019G28KT 02/M05 A30 RMK A01 T00161053  RH  060%=      5-min Rain = 0
KTH1 111654Z 32021G27KT 02/M05 A30 RMK A01 T00161053  RH  060%=      5-min Rain = 0
KTH1 111655Z 33021G30KT 02/M05 A30 RMK A01 T00161053  RH  060%=      5-min Rain = 0
KTH1 111656Z 33019G24KT 02/M05 A30 RMK A01 T00161053  RH  060%=      5-min Rain = 0
KTH1 111657Z 32021G27KT 02/M05 A30 RMK A01 T00161053  RH  060%=      5-min Rain = 0
KTH1 111658Z 32022G27KT 02/M05 A3001 RMK A01 T00161053  RH  060%=      5-min Rain = 0
KTH1 111659Z 33019G27KT 02/M05 A3001 RMK A01 T00171053  RH  060%=      5-min Rain = 0
KTH1 111700Z 33020G28KT 02/M05 A3001 RMK A01 T00171053  RH  060%=      5-min Rain = 0
KTH1 111701Z 33016KT 02/M05 A3001 RMK A01 T00171053  RH  060%=      5-min Rain = 0
KTH1 111702Z 32015KT 02/M05 A3001 RMK A01 T00171052  RH  060%=      5-min Rain = 0
KTH1 111703Z 33021G26KT 02/M05 A3001 RMK A01 T00171051  RH  061%=      5-min Rain = 0
KTH1 111704Z 33020G25KT 02/M05 A3001 RMK A01 T00181052  RH  060%=      5-min Rain = 0
KTH1 111705Z 33019G24KT 02/M05 A3001 RMK A01 T00181052  RH  060%=      5-min Rain = 0
KTH1 111706Z 33020G27KT 02/M05 A3001 RMK A01 T00181052  RH  060%=      5-min Rain = 0
KTH1 111707Z 33019KT 02/M05 A3001 RMK A01 T00181051  RH  060%=      5-min Rain = 0
KTH1 111708Z 33021G28KT 02/M05 A3002 RMK A01 T00181051  RH  060%=      5-min Rain = 0
KTH1 111709Z 32022G28KT 02/M05 A3001 RMK A01 T00181051  RH  060%=      5-min Rain = 0
KTH1 111710Z 34016KT 02/M05 A3002 RMK A01 T00181051  RH  060%=      5-min Rain = 0
KTH1 111711Z 33018G25KT 02/M05 A3002 RMK A01 T00181051  RH  060%=      5-min Rain = 0
KTH1 111712Z 33016G21KT 02/M05 A3002 RMK A01 T00181051  RH  060%=      5-min Rain = 0
KTH1 111713Z 33013KT 02/M05 A3002 RMK A01 T00181051  RH  060%=      5-min Rain = 0
KTH1 111714Z 34019G27KT 02/M05 A3002 RMK A01 T00191051  RH  060%=      5-min Rain = 0
KTH1 111715Z 33018G28KT 02/M05 A3002 RMK A01 T00181051  RH  060%=      5-min Rain = 0
KTH1 111716Z 33019G24KT 02/M05 A3002 RMK A01 T00181051  RH  060%=      5-min Rain = 0
KTH1 111717Z 33015G22KT 02/M05 A3002 RMK A01 T00181051  RH  060%=      5-min Rain = 0
KTH1 111718Z 32016G22KT 02/M05 A3002 RMK A01 T00181050  RH  060%=      5-min Rain = 0
KTH1 111719Z 33015KT 02/M05 A3002 RMK A01 T00181049  RH  061%=      5-min Rain = 0
KTH1 111720Z 33018G23KT 02/M05 A3002 RMK A01 T00191050  RH  060%=      5-min Rain = 0
KTH1 111721Z 33020G29KT 02/M05 A3002 RMK A01 T00191050  RH  060%=      5-min Rain = 0
KTH1 111722Z 33019G26KT 02/M05 A3002 RMK A01 T00191050  RH  060%=      5-min Rain = 0
KTH1 111723Z 32020G28KT 02/M05 A3002 RMK A01 T00191049  RH  061%=      5-min Rain = 0
KTH1 111724Z 33018G24KT 02/M05 A3002 RMK A01 T00181049  RH  061%=      5-min Rain = 0
KTH1 111725Z 33019G25KT 02/M05 A3002 RMK A01 T00181050  RH  061%=      5-min Rain = 0
KTH1 111726Z 33013KT 02/M05 A3003 RMK A01 T00191048  RH  061%=      5-min Rain = 0
KTH1 111727Z 33020G29KT 02/M05 A3003 RMK A01 T00191048  RH  061%=      5-min Rain = 0
KTH1 111728Z 33023G30KT 02/M05 A3002 RMK A01 T00191050  RH  060%=      5-min Rain = 0
KTH1 111729Z 33023KT 02/M05 A3003 RMK A01 T00181050  RH  061%=      5-min Rain = 0
KTH1 111730Z 33020G27KT 02/M05 A3003 RMK A01 T00181049  RH  061%=      5-min Rain = 0
KTH1 111731Z 33022G28KT 02/M05 A3003 RMK A01 T00171050  RH  061%=      5-min Rain = 0
KTH1 111732Z 33022G28KT 02/M05 A3003 RMK A01 T00171050  RH  061%=      5-min Rain = 0
KTH1 111733Z 34016G21KT 02/M05 A3003 RMK A01 T00171050  RH  061%=      5-min Rain = 0
KTH1 111734Z 34018G24KT 02/M05 A3003 RMK A01 T00171050  RH  061%=      5-min Rain = 0
KTH1 111735Z 34020G28KT 02/M05 A3003 RMK A01 T00171050  RH  061%=      5-min Rain = 0
KTH1 111736Z 34018G27KT 02/M05 A3003 RMK A01 T00181050  RH  061%=      5-min Rain = 0
KTH1 111737Z 34017G25KT 02/M05 A3003 RMK A01 T00181049  RH  061%=      5-min Rain = 0
KTH1 111738Z 33019G25KT 02/M05 A3003 RMK A01 T00181049  RH  061%=      5-min Rain = 0
KTH1 111739Z 34019G26KT 02/M05 A3004 RMK A01 T00181049  RH  061%=      5-min Rain = 0
KTH1 111740Z 33023G29KT 02/M05 A3003 RMK A01 T00191050  RH  060%=      5-min Rain = 0
KTH1 111741Z 33018G25KT 02/M05 A3003 RMK A01 T00191050  RH  060%=      5-min Rain = 0
KTH1 111742Z 33016G21KT 02/M05 A3004 RMK A01 T00191050  RH  061%=      5-min Rain = 0
KTH1 111743Z 34019G25KT 02/M05 A3004 RMK A01 T00191049  RH  061%=      5-min Rain = 0
KTH1 111744Z 35018G24KT 02/M05 A3004 RMK A01 T00181050  RH  060%=      5-min Rain = 0
KTH1 111745Z 33017G23KT 02/M05 A3004 RMK A01 T00181050  RH  061%=      5-min Rain = 0
KTH1 111746Z 33020KT 02/M05 A3004 RMK A01 T00191049  RH  061%=      5-min Rain = 0
KTH1 111747Z 33021G28KT 02/M05 A3004 RMK A01 T00191049  RH  061%=      5-min Rain = 0
KTH1 111748Z 33018G23KT 02/M05 A3004 RMK A01 T00191048  RH  061%=      5-min Rain = 0
KTH1 111749Z 33020G27KT 02/M05 A3004 RMK A01 T00201047  RH  061%=      5-min Rain = 0
KTH1 111750Z 33019G24KT 02/M05 A3004 RMK A01 T00201048  RH  061%=      5-min Rain = 0
KTH1 111751Z 33020G29KT 02/M05 A3004 RMK A01 T00201047  RH  061%=      5-min Rain = 0
KTH1 111752Z 33018G26KT 02/M05 A3004 RMK A01 T00201047  RH  061%=      5-min Rain = 0
KTH1 111753Z 33018G24KT 02/M05 A3004 RMK A01 T00211047  RH  061%=      5-min Rain = 0
KTH1 111754Z 33021G27KT 02/M05 A3004 RMK A01 T00211048  RH  060%=      5-min Rain = 0
KTH1 111755Z 33021G30KT 02/M05 A3004 RMK A01 T00211047  RH  061%=      5-min Rain = 0
KTH1 111756Z 33020G27KT 02/M05 A3004 RMK A01 T00221046  RH  061%=      5-min Rain = 0
KTH1 111757Z 32019KT 02/M05 A3004 RMK A01 T00231046  RH  060%=      5-min Rain = 0
KTH1 111758Z 33018G23KT 02/M05 A3004 RMK A01 T00231046  RH  060%=      5-min Rain = 0
KTH1 111759Z 33019G25KT 02/M05 A3004 RMK A01 T00231047  RH  060%=      5-min Rain = 0
KTH1 111800Z 33020G25KT 02/M05 A3004 RMK A01 T00231046  RH  060%=      5-min Rain = 0
KTH1 111801Z 33019G25KT 02/M05 A3004 RMK A01 T00231047  RH  060%=      5-min Rain = 0
KTH1 111802Z 33018G23KT 02/M05 A3004 RMK A01 T00231046  RH  060%=      5-min Rain = 0
KTH1 111803Z 33014G19KT 02/M05 A3004 RMK A01 T00231046  RH  060%=      5-min Rain = 0
KTH1 111804Z 33015G20KT 02/M05 A3004 RMK A01 T00241045  RH  060%=      5-min Rain = 0
KTH1 111805Z 32017G23KT 03/M04 A3004 RMK A01 T00251044  RH  060%=      5-min Rain = 0
KTH1 111806Z 33016G24KT 03/M04 A3004 RMK A01 T00251044  RH  060%=      5-min Rain = 0
KTH1 111807Z 33017KT 03/M05 A3004 RMK A01 T00251045  RH  060%=      5-min Rain = 0
KTH1 111808Z 33016G22KT 03/M05 A3004 RMK A01 T00251045  RH  060%=      5-min Rain = 0
KTH1 111809Z 34018KT 03/M05 A3004 RMK A01 T00251045  RH  060%=      5-min Rain = 0
KTH1 111810Z 33018G29KT 02/M05 A3004 RMK A01 T00241045  RH  060%=      5-min Rain = 0
KTH1 111811Z 33021G30KT 02/M05 A3004 RMK A01 T00241046  RH  060%=      5-min Rain = 0
KTH1 111812Z 33022KT 02/M05 A3004 RMK A01 T00241047  RH  059%=      5-min Rain = 0
KTH1 111813Z 33020G26KT 02/M05 A3004 RMK A01 T00241049  RH  059%=      5-min Rain = 0
KTH1 111814Z 33023G32KT 02/M05 A3004 RMK A01 T00241050  RH  058%=      5-min Rain = 0
KTH1 111815Z 33023G30KT 02/M05 A3004 RMK A01 T00231050  RH  058%=      5-min Rain = 0
KTH1 111816Z 33022G28KT 02/M05 A3004 RMK A01 T00231049  RH  059%=      5-min Rain = 0
KTH1 111817Z 33021G26KT 02/M05 A3004 RMK A01 T00231049  RH  059%=      5-min Rain = 0
KTH1 111818Z 33021G27KT 02/M05 A3005 RMK A01 T00231049  RH  059%=      5-min Rain = 0
KTH1 111819Z 32024G29KT 02/M05 A3004 RMK A01 T00231050  RH  059%=      5-min Rain = 0
KTH1 111820Z 32023KT 02/M05 A3004 RMK A01 T00231049  RH  059%=      5-min Rain = 0
KTH1 111821Z 33020G26KT 02/M05 A3005 RMK A01 T00231048  RH  059%=      5-min Rain = 0
KTH1 111822Z 33018G23KT 02/M05 A3005 RMK A01 T00231046  RH  060%=      5-min Rain = 0
KTH1 111823Z 33018G25KT 02/M05 A3005 RMK A01 T00241048  RH  059%=      5-min Rain = 0
KTH1 111824Z 33018KT 02/M05 A3005 RMK A01 T00231048  RH  059%=      5-min Rain = 0
KTH1 111825Z 33019KT 02/M05 A3005 RMK A01 T00231049  RH  059%=      5-min Rain = 0
KTH1 111826Z 33016G22KT 02/M05 A3005 RMK A01 T00231050  RH  059%=      5-min Rain = 0
KTH1 111827Z 33016G22KT 02/M05 A3005 RMK A01 T00241049  RH  059%=      5-min Rain = 0
KTH1 111828Z 33016G21KT 02/M05 A3005 RMK A01 T00241049  RH  059%=      5-min Rain = 0
KTH1 111829Z 33013G18KT 02/M05 A3005 RMK A01 T00241048  RH  059%=      5-min Rain = 0
KTH1 111830Z 36014G21KT 03/M05 A3005 RMK A01 T00251048  RH  059%=      5-min Rain = 0
KTH1 111831Z 35018G23KT 03/M05 A3005 RMK A01 T00251048  RH  058%=      5-min Rain = 0
KTH1 111832Z 35015G22KT 03/M05 A3005 RMK A01 T00251049  RH  058%=      5-min Rain = 0
KTH1 111833Z 35021G28KT 03/M05 A3005 RMK A01 T00251049  RH  058%=      5-min Rain = 0
KTH1 111834Z 34021G26KT 03/M05 A3005 RMK A01 T00251050  RH  058%=      5-min Rain = 0
KTH1 111835Z 33023G29KT 03/M05 A3005 RMK A01 T00251050  RH  058%=      5-min Rain = 0
KTH1 111836Z 34021G30KT 03/M05 A3005 RMK A01 T00251050  RH  058%=      5-min Rain = 0
KTH1 111837Z 34018G24KT 03/M05 A3005 RMK A01 T00251051  RH  057%=      5-min Rain = 0
KTH1 111838Z 34015KT 03/M05 A3005 RMK A01 T00251050  RH  058%=      5-min Rain = 0
KTH1 111839Z 34017G26KT 03/M05 A3005 RMK A01 T00261049  RH  058%=      5-min Rain = 0
KTH1 111840Z 33018G23KT 03/M05 A3005 RMK A01 T00261049  RH  057%=      5-min Rain = 0
KTH1 111841Z 34018G25KT 03/M05 A3005 RMK A01 T00261050  RH  057%=      5-min Rain = 0
KTH1 111842Z 34014KT 03/M05 A3005 RMK A01 T00271050  RH  057%=      5-min Rain = 0
KTH1 111843Z 34013KT 03/M05 A3005 RMK A01 T00271049  RH  057%=      5-min Rain = 0
KTH1 111844Z 34014KT 03/M05 A3005 RMK A01 T00281048  RH  057%=      5-min Rain = 0
KTH1 111845Z 33018G23KT 03/M05 A3005 RMK A01 T00281049  RH  057%=      5-min Rain = 0
KTH1 111846Z 33013KT 03/M05 A3005 RMK A01 T00281049  RH  057%=      5-min Rain = 0
KTH1 111847Z 33018G27KT 03/M05 A3005 RMK A01 T00291048  RH  057%=      5-min Rain = 0
KTH1 111848Z 33019G29KT 03/M05 A3005 RMK A01 T00291049  RH  057%=      5-min Rain = 0
KTH1 111849Z 33017KT 03/M05 A3005 RMK A01 T00291049  RH  056%=      5-min Rain = 0
KTH1 111850Z 33016G24KT 03/M05 A3005 RMK A01 T00291049  RH  057%=      5-min Rain = 0
KTH1 111851Z 33021KT 03/M05 A3005 RMK A01 T00291049  RH  057%=      5-min Rain = 0
KTH1 111852Z 33019G24KT 03/M05 A3005 RMK A01 T00291048  RH  057%=      5-min Rain = 0
KTH1 111853Z 33016G22KT 03/M05 A3005 RMK A01 T00301048  RH  057%=      5-min Rain = 0
KTH1 111854Z 33019G25KT 03/M05 A3005 RMK A01 T00301047  RH  057%=      5-min Rain = 0
KTH1 111855Z 32016G23KT 03/M05 A3005 RMK A01 T00311048  RH  056%=      5-min Rain = 0
KTH1 111856Z 32017KT 03/M05 A3005 RMK A01 T00311047  RH  057%=      5-min Rain = 0
KTH1 111857Z 32021G26KT 03/M05 A3005 RMK A01 T00311046  RH  057%=      5-min Rain = 0
KTH1 111858Z 33016KT 03/M05 A3005 RMK A01 T00311048  RH  056%=      5-min Rain = 0
KTH1 111859Z 33019G24KT 03/M05 A3005 RMK A01 T00321048  RH  056%=      5-min Rain = 0
KTH1 111900Z 33018KT 03/M05 A3005 RMK A01 T00321049  RH  056%=      5-min Rain = 0
KTH1 111901Z 33020G25KT 03/M05 A3005 RMK A01 T00321049  RH  055%=      5-min Rain = 0
KTH1 111902Z 33024G29KT 03/M05 A3005 RMK A01 T00321049  RH  055%=      5-min Rain = 0
KTH1 111903Z 33023KT 03/M05 A3005 RMK A01 T00321051  RH  054%=      5-min Rain = 0
KTH1 111904Z 33017KT 03/M05 A3005 RMK A01 T00311052  RH  055%=      5-min Rain = 0
KTH1 111905Z 33016G23KT 03/M05 A3006 RMK A01 T00301051  RH  055%=      5-min Rain = 0
KTH1 111906Z 33013G18KT 03/M05 A3006 RMK A01 T00311050  RH  055%=      5-min Rain = 0
KTH1 111907Z 34018G27KT 03/M05 A3006 RMK A01 T00311050  RH  055%=      5-min Rain = 0
KTH1 111908Z 34015G20KT 03/M05 A3006 RMK A01 T00321051  RH  055%=      5-min Rain = 0
KTH1 111909Z 32017G26KT 03/M05 A3006 RMK A01 T00321049  RH  055%=      5-min Rain = 0
KTH1 111910Z 32019KT 03/M05 A3006 RMK A01 T00331049  RH  055%=      5-min Rain = 0
KTH1 111911Z 33017KT 03/M05 A3006 RMK A01 T00331049  RH  055%=      5-min Rain = 0
KTH1 111912Z 32017G26KT 03/M05 A3006 RMK A01 T00341048  RH  055%=      5-min Rain = 0
KTH1 111913Z 32023G28KT 03/M05 A3006 RMK A01 T00341049  RH  055%=      5-min Rain = 0
KTH1 111914Z 32021G28KT 04/M05 A3006 RMK A01 T00351049  RH  054%=      5-min Rain = 0
KTH1 111915Z 33018G25KT 04/M05 A3006 RMK A01 T00351048  RH  054%=      5-min Rain = 0
KTH1 111916Z 33020G27KT 04/M05 A3006 RMK A01 T00361049  RH  054%=      5-min Rain = 0
KTH1 111917Z 34018G26KT 04/M05 A3006 RMK A01 T00371050  RH  053%=      5-min Rain = 0
KTH1 111918Z 35018G25KT 04/M05 A3006 RMK A01 T00381051  RH  052%=      5-min Rain = 0
KTH1 111919Z 34019G27KT 04/M05 A3006 RMK A01 T00381052  RH  052%=      5-min Rain = 0
KTH1 111920Z 33017G22KT 04/M05 A3006 RMK A01 T00381052  RH  052%=      5-min Rain = 0
KTH1 111921Z 33013KT 04/M05 A3006 RMK A01 T00381051  RH  052%=      5-min Rain = 0
KTH1 111922Z 36012G18KT 04/M05 A3006 RMK A01 T00401049  RH  052%=      5-min Rain = 0
KTH1 111923Z 34021G29KT 04/M05 A3006 RMK A01 T00411049  RH  052%=      5-min Rain = 0
KTH1 111924Z 33022KT 04/M05 A3006 RMK A01 T00401054  RH  050%=      5-min Rain = 0
KTH1 111925Z 33020G25KT 04/M05 A3006 RMK A01 T00381054  RH  051%=      5-min Rain = 0
KTH1 111926Z 33022G27KT 04/M05 A3006 RMK A01 T00361053  RH  052%=      5-min Rain = 0
KTH1 111927Z 34023KT 04/M05 A3006 RMK A01 T00361052  RH  052%=      5-min Rain = 0
KTH1 111928Z 34021G27KT 04/M05 A3006 RMK A01 T00371053  RH  052%=      5-min Rain = 0
KTH1 111929Z 34017G25KT 04/M05 A3006 RMK A01 T00401051  RH  051%=      5-min Rain = 0
KTH1 111930Z 33021G29KT 04/M05 A3006 RMK A01 T00431051  RH  050%=      5-min Rain = 0
KTH1 111931Z 35021G29KT 05/M05 A3006 RMK A01 T00451051  RH  050%=      5-min Rain = 0
KTH1 111932Z 34020G29KT 05/M05 A3006 RMK A01 T00461051  RH  049%=      5-min Rain = 0
KTH1 111933Z 33023G29KT 05/M05 A3006 RMK A01 T00471051  RH  049%=      5-min Rain = 0
KTH1 111934Z 32023G28KT 05/M05 A3005 RMK A01 T00471052  RH  049%=      5-min Rain = 0
KTH1 111935Z 33021G26KT 05/M05 A3006 RMK A01 T00471051  RH  049%=      5-min Rain = 0
KTH1 111936Z 34022G29KT 05/M05 A3005 RMK A01 T00491050  RH  049%=      5-min Rain = 0
KTH1 111937Z 34023G30KT 05/M05 A3005 RMK A01 T00491052  RH  048%=      5-min Rain = 0
KTH1 111938Z 33027G32KT 05/M05 A3005 RMK A01 T00481053  RH  048%=      5-min Rain = 0
KTH1 111939Z 33022G29KT 05/M05 A3005 RMK A01 T00481052  RH  048%=      5-min Rain = 0
KTH1 111940Z 33026G31KT 05/M05 A3006 RMK A01 T00481052  RH  048%=      5-min Rain = 0
KTH1 111941Z 33026G33KT 05/M05 A3006 RMK A01 T00481052  RH  048%=      5-min Rain = 0
KTH1 111942Z 34018G25KT 05/M05 A3006 RMK A01 T00471053  RH  048%=      5-min Rain = 0
KTH1 111943Z 34021G29KT 05/M05 A3006 RMK A01 T00481052  RH  048%=      5-min Rain = 0
KTH1 111944Z 34020G26KT 05/M05 A3006 RMK A01 T00501051  RH  048%=      5-min Rain = 0
KTH1 111945Z 34026G33KT 05/M05 A3005 RMK A01 T00501053  RH  047%=      5-min Rain = 0
KTH1 111946Z 33024G34KT 05/M05 A3006 RMK A01 T00501053  RH  047%=      5-min Rain = 0
KTH1 111947Z 34020G30KT 05/M05 A3005 RMK A01 T00511052  RH  047%=      5-min Rain = 0
KTH1 111948Z 34015G20KT 05/M05 A3006 RMK A01 T00521050  RH  047%=      5-min Rain = 0
KTH1 111949Z 34025G31KT 06/M05 A3006 RMK A01 T00551050  RH  047%=      5-min Rain = 0
KTH1 111950Z 34025G33KT 06/M05 A3005 RMK A01 T00551052  RH  046%=      5-min Rain = 0
KTH1 111951Z 34021G27KT 05/M05 A3005 RMK A01 T00541053  RH  046%=      5-min Rain = 0
KTH1 111952Z 33024G31KT 05/M05 A3006 RMK A01 T00541052  RH  046%=      5-min Rain = 0
KTH1 111953Z 33018G24KT 05/M05 A3006 RMK A01 T00541051  RH  046%=      5-min Rain = 0
KTH1 111954Z 34017G22KT 06/M05 A3006 RMK A01 T00551051  RH  046%=      5-min Rain = 0
KTH1 111955Z 33021G28KT 06/M05 A3006 RMK A01 T00571050  RH  046%=      5-min Rain = 0
KTH1 111956Z 33022G30KT 06/M05 A3006 RMK A01 T00581050  RH  046%=      5-min Rain = 0
KTH1 111957Z 33021G26KT 06/M05 A3006 RMK A01 T00581051  RH  046%=      5-min Rain = 0
KTH1 111958Z 34023G32KT 06/M05 A3006 RMK A01 T00571053  RH  045%=      5-min Rain = 0
KTH1 111959Z 34021G27KT 06/M05 A3006 RMK A01 T00561053  RH  045%=      5-min Rain = 0
KTH1 112000Z 34018G26KT 06/M05 A3006 RMK A01 T00551054  RH  045%=      5-min Rain = 0
KTH1 112001Z 35019G29KT 06/M05 A3006 RMK A01 T00551053  RH  045%=      5-min Rain = 0
KTH1 112002Z 35017G24KT 06/M05 A3006 RMK A01 T00561054  RH  045%=      5-min Rain = 0
KTH1 112003Z 33020G26KT 06/M05 A3006 RMK A01 T00551054  RH  045%=      5-min Rain = 0
KTH1 112004Z 34016KT 06/M05 A3006 RMK A01 T00551054  RH  045%=      5-min Rain = 0
KTH1 112005Z 33019G24KT 05/M06 A3006 RMK A01 T00541055  RH  045%=      5-min Rain = 0
KTH1 112006Z 33021G27KT 05/M06 A3006 RMK A01 T00531057  RH  045%=      5-min Rain = 0
KTH1 112007Z 33020G28KT 05/M06 A3006 RMK A01 T00521058  RH  045%=      5-min Rain = 0
KTH1 112008Z 33016G21KT 05/M06 A3006 RMK A01 T00511060  RH  045%=      5-min Rain = 0
KTH1 112009Z 33020G25KT 05/M06 A3006 RMK A01 T00511058  RH  045%=      5-min Rain = 0
KTH1 112010Z 33022G27KT 05/M06 A3006 RMK A01 T00511059  RH  045%=      5-min Rain = 0
KTH1 112011Z 34015G23KT 05/M06 A3006 RMK A01 T00511059  RH  045%=      5-min Rain = 0
KTH1 112012Z 34017G22KT 05/M06 A3006 RMK A01 T00531057  RH  045%=      5-min Rain = 0
KTH1 112013Z 34021G27KT 06/M06 A3007 RMK A01 T00551057  RH  044%=      5-min Rain = 0
KTH1 112014Z 34021G30KT 06/M06 A3007 RMK A01 T00561060  RH  043%=      5-min Rain = 0
KTH1 112015Z 34020G26KT 06/M06 A3007 RMK A01 T00561061  RH  043%=      5-min Rain = 0
KTH1 112016Z 34018G26KT 06/M06 A3007 RMK A01 T00571060  RH  043%=      5-min Rain = 0
KTH1 112017Z 34018G23KT 06/M06 A3007 RMK A01 T00561061  RH  043%=      5-min Rain = 0
KTH1 112018Z 34016G21KT 06/M06 A3007 RMK A01 T00561061  RH  043%=      5-min Rain = 0
KTH1 112019Z 33015G24KT 06/M06 A3006 RMK A01 T00571060  RH  043%=      5-min Rain = 0
KTH1 112020Z 34013G19KT 06/M06 A3007 RMK A01 T00581059  RH  043%=      5-min Rain = 0
KTH1 112021Z 35013G21KT 06/M06 A3007 RMK A01 T00601057  RH  043%=      5-min Rain = 0
KTH1 112022Z 34013KT 06/M06 A3007 RMK A01 T00621057  RH  042%=      5-min Rain = 0
KTH1 112023Z 34015G25KT 06/M06 A3007 RMK A01 T00631058  RH  042%=      5-min Rain = 0
KTH1 112024Z 33016KT 06/M06 A3007 RMK A01 T00631060  RH  041%=      5-min Rain = 0
KTH1 112025Z 34013G20KT 06/M06 A3007 RMK A01 T00631060  RH  041%=      5-min Rain = 0
KTH1 112026Z 34013G21KT 06/M06 A3007 RMK A01 T00621061  RH  041%=      5-min Rain = 0
KTH1 112027Z 34017G24KT 06/M06 A3007 RMK A01 T00631062  RH  041%=      5-min Rain = 0
KTH1 112028Z 33014KT 06/M06 A3007 RMK A01 T00611063  RH  041%=      5-min Rain = 0
KTH1 112029Z 35018G25KT 06/M06 A3007 RMK A01 T00611062  RH  041%=      5-min Rain = 0
KTH1 112030Z 35018G25KT 06/M07 A3007 RMK A01 T00601065  RH  040%=      5-min Rain = 0
KTH1 112031Z 34018G27KT 06/M07 A3007 RMK A01 T00581066  RH  040%=      5-min Rain = 0
KTH1 112032Z 33021G27KT 06/M07 A3007 RMK A01 T00581066  RH  040%=      5-min Rain = 0
KTH1 112033Z 34018G23KT 06/M07 A3007 RMK A01 T00581067  RH  040%=      5-min Rain = 0
KTH1 112034Z 33020G25KT 06/M07 A3007 RMK A01 T00591067  RH  040%=      5-min Rain = 0
KTH1 112035Z 33019KT 06/M07 A3007 RMK A01 T00591066  RH  040%=      5-min Rain = 0
KTH1 112036Z 34016G22KT 06/M07 A3007 RMK A01 T00591065  RH  041%=      5-min Rain = 0
KTH1 112037Z 33016G22KT 06/M07 A3007 RMK A01 T00601065  RH  040%=      5-min Rain = 0
KTH1 112038Z 33017KT 06/M07 A3007 RMK A01 T00601065  RH  040%=      5-min Rain = 0
KTH1 112039Z 33015KT 06/M07 A3007 RMK A01 T00601065  RH  040%=      5-min Rain = 0
KTH1 112040Z 34011KT 06/M07 A3007 RMK A01 T00611065  RH  040%=      5-min Rain = 0
KTH1 112041Z 35013G19KT 06/M06 A3007 RMK A01 T00631063  RH  040%=      5-min Rain = 0
KTH1 112042Z 34017G22KT 07/M07 A3007 RMK A01 T00651065  RH  039%=      5-min Rain = 0
KTH1 112043Z 34015KT 07/M07 A3007 RMK A01 T00661067  RH  038%=      5-min Rain = 0
KTH1 112044Z 34019G24KT 07/M07 A3007 RMK A01 T00661068  RH  038%=      5-min Rain = 0
KTH1 112045Z 34017G22KT 07/M07 A3007 RMK A01 T00651071  RH  037%=      5-min Rain = 0
KTH1 112046Z 34015G21KT 07/M07 A3007 RMK A01 T00651069  RH  038%=      5-min Rain = 0
KTH1 112047Z 35017G23KT 07/M07 A3007 RMK A01 T00661069  RH  037%=      5-min Rain = 0
KTH1 112048Z 34016G22KT 07/M07 A3008 RMK A01 T00681069  RH  037%=      5-min Rain = 0
KTH1 112049Z 35020G26KT 07/M07 A3007 RMK A01 T00681071  RH  036%=      5-min Rain = 0
KTH1 112050Z 35018G26KT 07/M08 A3008 RMK A01 T00661075  RH  036%=      5-min Rain = 0
KTH1 112051Z 35017G24KT 07/M07 A3008 RMK A01 T00651074  RH  036%=      5-min Rain = 0
KTH1 112052Z 35022G27KT 07/M07 A3008 RMK A01 T00651074  RH  036%=      5-min Rain = 0
KTH1 112053Z 34023G30KT 07/M08 A3008 RMK A01 T00651075  RH  036%=      5-min Rain = 0
KTH1 112054Z 35024G29KT 06/M08 A3007 RMK A01 T00641076  RH  036%=      5-min Rain = 0
KTH1 112055Z 35019G26KT 06/M08 A3008 RMK A01 T00641075  RH  036%=      5-min Rain = 0
KTH1 112056Z 34020G26KT 07/M08 A3008 RMK A01 T00651075  RH  036%=      5-min Rain = 0
KTH1 112057Z 35018G25KT 07/M07 A3008 RMK A01 T00661074  RH  036%=      5-min Rain = 0
KTH1 112058Z 34016G22KT 07/M07 A3008 RMK A01 T00661074  RH  036%=      5-min Rain = 0
KTH1 112059Z 34017G25KT 07/M07 A3008 RMK A01 T00661074  RH  036%=      5-min Rain = 0
KTH1 112100Z 34015G25KT 07/M07 A3008 RMK A01 T00671073  RH  036%=      5-min Rain = 0
KTH1 112101Z 33018G24KT 07/M07 A3008 RMK A01 T00681074  RH  036%=      5-min Rain = 0
KTH1 112102Z 33022G29KT 07/M07 A3008 RMK A01 T00691074  RH  035%=      5-min Rain = 0
KTH1 112103Z 33016G21KT 07/M08 A3008 RMK A01 T00701076  RH  035%=      5-min Rain = 0
KTH1 112104Z 34017G27KT 07/M08 A3008 RMK A01 T00701076  RH  034%=      5-min Rain = 0
KTH1 112105Z 34018G26KT 07/M08 A3008 RMK A01 T00711076  RH  034%=      5-min Rain = 0
KTH1 112106Z 34016G22KT 07/M08 A3008 RMK A01 T00711076  RH  034%=      5-min Rain = 0
KTH1 112107Z 34020G28KT 07/M08 A3008 RMK A01 T00721078  RH  034%=      5-min Rain = 0
KTH1 112108Z 35019G29KT 07/M08 A3008 RMK A01 T00711080  RH  033%=      5-min Rain = 0
KTH1 112109Z 34023G30KT 07/M08 A3008 RMK A01 T00701082  RH  033%=      5-min Rain = 0
KTH1 112110Z 34021KT 07/M08 A3008 RMK A01 T00691082  RH  033%=      5-min Rain = 0
KTH1 112111Z 34017G22KT 07/M08 A3008 RMK A01 T00691081  RH  033%=      5-min Rain = 0
KTH1 112112Z 33013KT 07/M08 A3008 RMK A01 T00701079  RH  034%=      5-min Rain = 0
KTH1 112113Z 33019G24KT 07/M08 A3008 RMK A01 T00721077  RH  034%=      5-min Rain = 0
KTH1 112114Z 35018G27KT 07/M08 A3009 RMK A01 T00731077  RH  034%=      5-min Rain = 0
KTH1 112115Z 34015G23KT 07/M08 A3009 RMK A01 T00731079  RH  033%=      5-min Rain = 0
KTH1 112116Z 35019G25KT 07/M08 A3009 RMK A01 T00731080  RH  033%=      5-min Rain = 0
KTH1 112117Z 34020G26KT 07/M08 A3009 RMK A01 T00731081  RH  033%=      5-min Rain = 0
KTH1 112118Z 34016KT 07/M08 A3009 RMK A01 T00731079  RH  033%=      5-min Rain = 0
KTH1 112119Z 32021G29KT 07/M08 A3008 RMK A01 T00741080  RH  033%=      5-min Rain = 0
KTH1 112120Z 32021G27KT 07/M08 A3008 RMK A01 T00731079  RH  033%=      5-min Rain = 0
KTH1 112121Z 33018G26KT 07/M08 A3009 RMK A01 T00731081  RH  033%=      5-min Rain = 0
KTH1 112122Z 33024G31KT 07/M08 A3009 RMK A01 T00731083  RH  032%=      5-min Rain = 0
KTH1 112123Z 33024G31KT 07/M09 A3009 RMK A01 T00721089  RH  031%=      5-min Rain = 0
KTH1 112124Z 33019G25KT 07/M09 A3009 RMK A01 T00711088  RH  031%=      5-min Rain = 0
KTH1 112125Z 33023G33KT 07/M09 A3009 RMK A01 T00711088  RH  031%=      5-min Rain = 0
KTH1 112126Z 35024G32KT 07/M09 A3009 RMK A01 T00701090  RH  031%=      5-min Rain = 0
KTH1 112127Z 35026G36KT 07/M09 A301 RMK A01 T00701091  RH  031%=      5-min Rain = 0
KTH1 112128Z 35022G28KT 07/M09 A3009 RMK A01 T00701092  RH  031%=      5-min Rain = 0
KTH1 112129Z 34021G30KT 07/M09 A3009 RMK A01 T00691092  RH  031%=      5-min Rain = 0
KTH1 112130Z 34018G23KT 07/M09 A3009 RMK A01 T00691092  RH  031%=      5-min Rain = 0
KTH1 112131Z 33022G30KT 07/M09 A3009 RMK A01 T00691091  RH  031%=      5-min Rain = 0
KTH1 112132Z 33018G25KT 07/M09 A3009 RMK A01 T00691090  RH  031%=      5-min Rain = 0
KTH1 112133Z 35025G36KT 07/M09 A301 RMK A01 T00691091  RH  031%=      5-min Rain = 0
KTH1 112134Z 34021G28KT 07/M09 A301 RMK A01 T00701092  RH  031%=      5-min Rain = 0
KTH1 112135Z 34022G29KT 07/M09 A301 RMK A01 T00691093  RH  030%=      5-min Rain = 0
KTH1 112136Z 34023G32KT 07/M09 A301 RMK A01 T00691092  RH  031%=      5-min Rain = 0
KTH1 112137Z 34025G31KT 07/M09 A301 RMK A01 T00691092  RH  031%=      5-min Rain = 0
KTH1 112138Z 33022G32KT 07/M09 A301 RMK A01 T00681093  RH  031%=      5-min Rain = 0
KTH1 112139Z 34022G28KT 07/M09 A301 RMK A01 T00681093  RH  031%=      5-min Rain = 0
KTH1 112140Z 34021G28KT 07/M09 A301 RMK A01 T00681093  RH  031%=      5-min Rain = 0
KTH1 112141Z 34020G31KT 07/M09 A301 RMK A01 T00681093  RH  031%=      5-min Rain = 0
KTH1 112142Z 33018G25KT 07/M09 A301 RMK A01 T00681092  RH  031%=      5-min Rain = 0
KTH1 112143Z 33019G25KT 07/M09 A301 RMK A01 T00691092  RH  031%=      5-min Rain = 0
KTH1 112144Z 33022G28KT 07/M09 A301 RMK A01 T00691091  RH  031%=      5-min Rain = 0
KTH1 112145Z 34020G30KT 07/M09 A301 RMK A01 T00701092  RH  031%=      5-min Rain = 0
KTH1 112146Z 34016G28KT 07/M09 A301 RMK A01 T00701091  RH  031%=      5-min Rain = 0
KTH1 112147Z 34018G24KT 07/M09 A301 RMK A01 T00711091  RH  031%=      5-min Rain = 0
KTH1 112148Z 33018G25KT 07/M09 A301 RMK A01 T00711093  RH  030%=      5-min Rain = 0
KTH1 112149Z 34020G28KT 07/M09 A301 RMK A01 T00711092  RH  030%=      5-min Rain = 0
KTH1 112150Z 34019G28KT 07/M09 A301 RMK A01 T00711094  RH  030%=      5-min Rain = 0
KTH1 112151Z 35021G30KT 07/M09 A301 RMK A01 T00701094  RH  030%=      5-min Rain = 0
KTH1 112152Z 34021KT 07/M09 A301 RMK A01 T00701094  RH  030%=      5-min Rain = 0
KTH1 112153Z 34019G26KT 07/M09 A301 RMK A01 T00701093  RH  030%=      5-min Rain = 0
KTH1 112154Z 34019G24KT 07/M09 A301 RMK A01 T00701093  RH  030%=      5-min Rain = 0
KTH1 112155Z 33019G26KT 07/M09 A301 RMK A01 T00701093  RH  030%=      5-min Rain = 0
KTH1 112156Z 33017G24KT 07/M09 A3011 RMK A01 T00701092  RH  030%=      5-min Rain = 0
KTH1 112157Z 34020KT 07/M09 A3011 RMK A01 T00711092  RH  030%=      5-min Rain = 0
KTH1 112158Z 33022G28KT 07/M09 A3011 RMK A01 T00701093  RH  030%=      5-min Rain = 0
KTH1 112159Z 33020KT 07/M09 A3011 RMK A01 T00711092  RH  030%=      5-min Rain = 0
KTH1 112200Z 33016G22KT 07/M09 A3011 RMK A01 T00721091  RH  030%=      5-min Rain = 0
KTH1 112201Z 34017G25KT 07/M09 A3011 RMK A01 T00731091  RH  030%=      5-min Rain = 0
KTH1 112202Z 34017G24KT 07/M09 A3011 RMK A01 T00731091  RH  030%=      5-min Rain = 0
KTH1 112203Z 34018G23KT 07/M09 A3011 RMK A01 T00731092  RH  030%=      5-min Rain = 0
KTH1 112204Z 34015G23KT 07/M09 A3011 RMK A01 T00721091  RH  030%=      5-min Rain = 0
KTH1 112205Z 34018G23KT 07/M09 A3011 RMK A01 T00721092  RH  030%=      5-min Rain = 0
KTH1 112206Z 34015G21KT 07/M09 A3011 RMK A01 T00721092  RH  030%=      5-min Rain = 0
KTH1 112207Z 34017G25KT 07/M09 A3011 RMK A01 T00721091  RH  030%=      5-min Rain = 0
KTH1 112208Z 35016G21KT 07/M09 A3011 RMK A01 T00721092  RH  030%=      5-min Rain = 0
KTH1 112209Z 34018G23KT 07/M09 A3011 RMK A01 T00731092  RH  030%=      5-min Rain = 0
KTH1 112210Z 34014G23KT 07/M09 A3011 RMK A01 T00731092  RH  030%=      5-min Rain = 0
KTH1 112211Z 35015G23KT 07/M09 A3011 RMK A01 T00731091  RH  030%=      5-min Rain = 0
KTH1 112212Z 34017KT 07/M09 A3011 RMK A01 T00731092  RH  030%=      5-min Rain = 0
KTH1 112213Z 34019G26KT 07/M09 A3011 RMK A01 T00721094  RH  030%=      5-min Rain = 0
KTH1 112214Z 35015G20KT 07/M09 A3011 RMK A01 T00711094  RH  030%=      5-min Rain = 0
KTH1 112215Z 34016KT 07/M09 A3011 RMK A01 T00711092  RH  030%=      5-min Rain = 0
KTH1 112216Z 35017KT 07/M09 A3011 RMK A01 T00721091  RH  030%=      5-min Rain = 0
KTH1 112217Z 33016G21KT 07/M09 A3011 RMK A01 T00721091  RH  030%=      5-min Rain = 0
KTH1 112218Z 33014KT 07/M09 A3011 RMK A01 T00721090  RH  030%=      5-min Rain = 0
KTH1 112219Z 33018G23KT 07/M09 A3011 RMK A01 T00731090  RH  030%=      5-min Rain = 0
KTH1 112220Z 34014G19KT 07/M09 A3012 RMK A01 T00741090  RH  030%=      5-min Rain = 0
KTH1 112221Z 34015G20KT 07/M09 A3012 RMK A01 T00741091  RH  030%=      5-min Rain = 0
KTH1 112222Z 33014KT 07/M09 A3012 RMK A01 T00741091  RH  030%=      5-min Rain = 0
KTH1 112223Z 34012G20KT 07/M09 A3012 RMK A01 T00741090  RH  030%=      5-min Rain = 0
KTH1 112224Z 33013G19KT 07/M09 A3012 RMK A01 T00741088  RH  030%=      5-min Rain = 0
KTH1 112225Z 34015G21KT 08/M09 A3012 RMK A01 T00751090  RH  030%=      5-min Rain = 0
KTH1 112226Z 34013KT 08/M09 A3012 RMK A01 T00751091  RH  030%=      5-min Rain = 0
KTH1 112227Z 34014KT 08/M09 A3012 RMK A01 T00751091  RH  030%=      5-min Rain = 0
KTH1 112228Z 34016G21KT 08/M09 A3012 RMK A01 T00751090  RH  030%=      5-min Rain = 0
KTH1 112229Z 34015G22KT 08/M09 A3012 RMK A01 T00751091  RH  030%=      5-min Rain = 0
KTH1 112230Z 34015G20KT 08/M09 A3012 RMK A01 T00761092  RH  029%=      5-min Rain = 0
KTH1 112231Z 34011KT 08/M09 A3012 RMK A01 T00761090  RH  030%=      5-min Rain = 0
KTH1 112232Z 34016G23KT 08/M09 A3012 RMK A01 T00761090  RH  030%=      5-min Rain = 0
KTH1 112233Z 34015G22KT 08/M09 A3012 RMK A01 T00761091  RH  029%=      5-min Rain = 0
KTH1 112234Z 34016G22KT 08/M09 A3012 RMK A01 T00761093  RH  029%=      5-min Rain = 0
KTH1 112235Z 34018G23KT 08/M09 A3012 RMK A01 T00761093  RH  029%=      5-min Rain = 0
KTH1 112236Z 34015KT 08/M09 A3012 RMK A01 T00751093  RH  029%=      5-min Rain = 0
KTH1 112237Z 34021G26KT 08/M09 A3012 RMK A01 T00751093  RH  029%=      5-min Rain = 0
KTH1 112238Z 34015KT 08/M09 A3012 RMK A01 T00751092  RH  029%=      5-min Rain = 0
KTH1 112239Z 34015G23KT 08/M09 A3012 RMK A01 T00751092  RH  030%=      5-min Rain = 0
KTH1 112240Z 33015KT 08/M09 A3012 RMK A01 T00751093  RH  029%=      5-min Rain = 0
KTH1 112241Z 34015KT 08/M09 A3012 RMK A01 T00751091  RH  030%=      5-min Rain = 0
KTH1 112242Z 34012G17KT 08/M09 A3013 RMK A01 T00761091  RH  030%=      5-min Rain = 0
KTH1 112243Z 33015G20KT 08/M09 A3013 RMK A01 T00771090  RH  030%=      5-min Rain = 0
KTH1 112244Z 34017G23KT 08/M09 A3012 RMK A01 T00771093  RH  029%=      5-min Rain = 0
KTH1 112245Z 34012G17KT 08/M09 A3013 RMK A01 T00771092  RH  029%=      5-min Rain = 0
KTH1 112246Z 35017G23KT 08/M09 A3013 RMK A01 T00771092  RH  029%=      5-min Rain = 0
KTH1 112247Z 34018G26KT 08/M10 A3012 RMK A01 T00771095  RH  029%=      5-min Rain = 0
KTH1 112248Z 34018G28KT 08/M10 A3013 RMK A01 T00771095  RH  028%=      5-min Rain = 0
KTH1 112249Z 33020G26KT 08/M10 A3012 RMK A01 T00761096  RH  028%=      5-min Rain = 0
KTH1 112250Z 33019G28KT 08/M10 A3013 RMK A01 T00761097  RH  028%=      5-min Rain = 0
KTH1 112251Z 34019G32KT 08/M10 A3013 RMK A01 T00761098  RH  028%=      5-min Rain = 0
KTH1 112252Z 34022G30KT 08/M10 A3013 RMK A01 T00751100  RH  028%=      5-min Rain = 0
KTH1 112253Z 35021G27KT 07/M10 A3013 RMK A01 T00741102  RH  027%=      5-min Rain = 0
KTH1 112254Z 34017G24KT 07/M10 A3013 RMK A01 T00731101  RH  028%=      5-min Rain = 0
KTH1 112255Z 34019G26KT 07/M10 A3013 RMK A01 T00731100  RH  028%=      5-min Rain = 0
KTH1 112256Z 35016G24KT 07/M10 A3013 RMK A01 T00731099  RH  028%=      5-min Rain = 0
KTH1 112257Z 34020G25KT 07/M10 A3013 RMK A01 T00721099  RH  028%=      5-min Rain = 0
KTH1 112258Z 34021G27KT 07/M10 A3013 RMK A01 T00721099  RH  028%=      5-min Rain = 0
KTH1 112259Z 35014G21KT 07/M10 A3013 RMK A01 T00711100  RH  028%=      5-min Rain = 0
KTH1 112300Z 34016G25KT 07/M10 A3013 RMK A01 T00711099  RH  029%=      5-min Rain = 0
KTH1 112301Z 34017G25KT 07/M10 A3013 RMK A01 T00711100  RH  028%=      5-min Rain = 0
KTH1 112302Z 34019G27KT 07/M10 A3013 RMK A01 T00711100  RH  028%=      5-min Rain = 0
KTH1 112303Z 34017G22KT 07/M10 A3014 RMK A01 T00711100  RH  028%=      5-min Rain = 0
KTH1 112304Z 33018G24KT 07/M10 A3014 RMK A01 T00711099  RH  029%=      5-min Rain = 0
KTH1 112305Z 34023G30KT 07/M10 A3014 RMK A01 T00711099  RH  029%=      5-min Rain = 0
KTH1 112306Z 34017G23KT 07/M10 A3013 RMK A01 T00701101  RH  028%=      5-min Rain = 0
KTH1 112307Z 33017KT 07/M10 A3014 RMK A01 T00701099  RH  029%=      5-min Rain = 0
KTH1 112308Z 34014G22KT 07/M10 A3014 RMK A01 T00701097  RH  029%=      5-min Rain = 0
KTH1 112309Z 34018G24KT 07/M10 A3014 RMK A01 T00701097  RH  029%=      5-min Rain = 0
KTH1 112310Z 35016G23KT 07/M10 A3014 RMK A01 T00701098  RH  029%=      5-min Rain = 0
KTH1 112311Z 34017G23KT 07/M10 A3014 RMK A01 T00691098  RH  029%=      5-min Rain = 0
KTH1 112312Z 34015KT 07/M10 A3014 RMK A01 T00691098  RH  029%=      5-min Rain = 0
KTH1 112313Z 34015KT 07/M10 A3014 RMK A01 T00691097  RH  030%=      5-min Rain = 0
KTH1 112314Z 34013KT 07/M10 A3014 RMK A01 T00691096  RH  030%=      5-min Rain = 0
KTH1 112315Z 34013G18KT 07/M10 A3014 RMK A01 T00691096  RH  030%=      5-min Rain = 0
KTH1 112316Z 34016G22KT 07/M10 A3014 RMK A01 T00681096  RH  030%=      5-min Rain = 0
KTH1 112317Z 34018G24KT 07/M10 A3014 RMK A01 T00681097  RH  030%=      5-min Rain = 0
KTH1 112318Z 33018G24KT 07/M10 A3014 RMK A01 T00681099  RH  029%=      5-min Rain = 0
KTH1 112319Z 34017G24KT 07/M10 A3014 RMK A01 T00681098  RH  029%=      5-min Rain = 0
KTH1 112320Z 34016G22KT 07/M10 A3014 RMK A01 T00681098  RH  030%=      5-min Rain = 0
KTH1 112321Z 33015G20KT 07/M10 A3014 RMK A01 T00681096  RH  030%=      5-min Rain = 0
KTH1 112322Z 33015G22KT 07/M10 A3014 RMK A01 T00681095  RH  030%=      5-min Rain = 0
KTH1 112323Z 34017KT 07/M10 A3014 RMK A01 T00681097  RH  030%=      5-min Rain = 0
KTH1 112324Z 33016G22KT 07/M10 A3014 RMK A01 T00671096  RH  030%=      5-min Rain = 0
KTH1 112325Z 34017G22KT 07/M10 A3014 RMK A01 T00671099  RH  030%=      5-min Rain = 0
KTH1 112326Z 34023G34KT 07/M10 A3014 RMK A01 T00651102  RH  029%=      5-min Rain = 0
KTH1 112327Z 34018G26KT 06/M10 A3015 RMK A01 T00641103  RH  029%=      5-min Rain = 0
KTH1 112328Z 34020G26KT 06/M10 A3015 RMK A01 T00631102  RH  030%=      5-min Rain = 0
KTH1 112329Z 34018G24KT 06/M10 A3015 RMK A01 T00631103  RH  029%=      5-min Rain = 0
KTH1 112330Z 33020G25KT 06/M10 A3015 RMK A01 T00621103  RH  030%=      5-min Rain = 0
KTH1 112331Z 34025G33KT 06/M10 A3015 RMK A01 T00621104  RH  029%=      5-min Rain = 0
KTH1 112332Z 34021G29KT 06/M10 A3015 RMK A01 T00611104  RH  029%=      5-min Rain = 0
KTH1 112333Z 34024G31KT 06/M10 A3015 RMK A01 T00611104  RH  029%=      5-min Rain = 0
KTH1 112334Z 34022G27KT 06/M10 A3016 RMK A01 T00611104  RH  029%=      5-min Rain = 0
KTH1 112335Z 34017G25KT 06/M10 A3016 RMK A01 T00611104  RH  030%=      5-min Rain = 0
KTH1 112336Z 34018G24KT 06/M10 A3016 RMK A01 T00601103  RH  030%=      5-min Rain = 0
KTH1 112337Z 34015G23KT 06/M10 A3016 RMK A01 T00591102  RH  030%=      5-min Rain = 0
KTH1 112338Z 34017G23KT 06/M10 A3016 RMK A01 T00591103  RH  030%=      5-min Rain = 0
KTH1 112339Z 35016G22KT 06/M10 A3016 RMK A01 T00581104  RH  030%=      5-min Rain = 0
KTH1 112340Z 35018G24KT 06/M10 A3016 RMK A01 T00571103  RH  030%=      5-min Rain = 0
KTH1 112341Z 34017G22KT 06/M10 A3016 RMK A01 T00571102  RH  031%=      5-min Rain = 0
KTH1 112342Z 34016KT 06/M10 A3016 RMK A01 T00561102  RH  031%=      5-min Rain = 0
KTH1 112343Z 35012KT 06/M10 A3017 RMK A01 T00561102  RH  031%=      5-min Rain = 0
KTH1 112344Z 35012G17KT 06/M10 A3017 RMK A01 T00561101  RH  031%=      5-min Rain = 0
KTH1 112345Z 35015KT 06/M10 A3017 RMK A01 T00551102  RH  031%=      5-min Rain = 0
KTH1 112346Z 35015KT 06/M10 A3017 RMK A01 T00551102  RH  031%=      5-min Rain = 0
KTH1 112347Z 35012KT 05/M10 A3017 RMK A01 T00541101  RH  032%=      5-min Rain = 0
KTH1 112348Z 34013KT 05/M10 A3017 RMK A01 T00531101  RH  032%=      5-min Rain = 0
KTH1 112349Z 35011KT 05/M10 A3017 RMK A01 T00531100  RH  032%=      5-min Rain = 0
KTH1 112350Z 34013KT 05/M10 A3017 RMK A01 T00521100  RH  033%=      5-min Rain = 0
KTH1 112351Z 35013G19KT 05/M10 A3017 RMK A01 T00511101  RH  032%=      5-min Rain = 0
KTH1 112352Z 35011KT 05/M10 A3017 RMK A01 T00521100  RH  032%=      5-min Rain = 0
KTH1 112353Z 35009KT 05/M10 A3017 RMK A01 T00511099  RH  033%=      5-min Rain = 0
KTH1 112354Z 34010KT 05/M10 A3017 RMK A01 T00501099  RH  033%=      5-min Rain = 0
KTH1 112355Z 34012KT 05/M10 A3017 RMK A01 T00491099  RH  033%=      5-min Rain = 0
KTH1 112356Z 35010KT 05/M10 A3017 RMK A01 T00491099  RH  033%=      5-min Rain = 0
KTH1 112357Z 35010KT 05/M10 A3017 RMK A01 T00491099  RH  033%=      5-min Rain = 0
KTH1 112358Z 35012KT 05/M10 A3017 RMK A01 T00481099  RH  033%=      5-min Rain = 0
KTH1 112359Z 35011KT 05/M10 A3017 RMK A01 T00481100  RH  033%=      5-min Rain = 0
KTH1 120000Z 34009KT 05/M10 A3017 RMK A01 T00481099  RH  034%=      5-min Rain = 0
KTH1 120001Z 35008G13KT 05/M10 A3017 RMK A01 T00481099  RH  034%=      5-min Rain = 0
KTH1 120002Z 34010KT 05/M10 A3017 RMK A01 T00471099  RH  034%=      5-min Rain = 0
KTH1 120003Z 34010KT 05/M10 A3017 RMK A01 T00471098  RH  034%=      5-min Rain = 0
KTH1 120004Z 34010KT 05/M10 A3017 RMK A01 T00471099  RH  034%=      5-min Rain = 0
KTH1 120005Z 35008KT 05/M10 A3017 RMK A01 T00461099  RH  034%=      5-min Rain = 0
KTH1 120006Z 35008KT 05/M10 A3017 RMK A01 T00461098  RH  034%=      5-min Rain = 0
KTH1 120007Z 34010KT 05/M10 A3018 RMK A01 T00451098  RH  034%=      5-min Rain = 0
KTH1 120008Z 34009KT 04/M10 A3018 RMK A01 T00441099  RH  035%=      5-min Rain = 0
KTH1 120009Z 34009KT 04/M10 A3018 RMK A01 T00441098  RH  035%=      5-min Rain = 0
KTH1 120010Z 34010KT 04/M10 A3018 RMK A01 T00441097  RH  035%=      5-min Rain = 0
KTH1 120011Z 34008G15KT 04/M10 A3018 RMK A01 T00431097  RH  035%=      5-min Rain = 0
KTH1 120012Z 34009KT 04/M10 A3018 RMK A01 T00431098  RH  035%=      5-min Rain = 0
KTH1 120013Z 34008KT 04/M10 A3018 RMK A01 T00421097  RH  035%=      5-min Rain = 0
KTH1 120014Z 34010KT 04/M10 A3018 RMK A01 T00431097  RH  036%=      5-min Rain = 0
KTH1 120015Z 33011KT 04/M10 A3018 RMK A01 T00431097  RH  035%=      5-min Rain = 0
KTH1 120016Z 34009KT 04/M10 A3018 RMK A01 T00431097  RH  035%=      5-min Rain = 0
KTH1 120017Z 34011KT 04/M10 A3018 RMK A01 T00431096  RH  035%=      5-min Rain = 0
KTH1 120018Z 34010KT 04/M10 A3019 RMK A01 T00441097  RH  035%=      5-min Rain = 0
KTH1 120019Z 34011KT 04/M10 A3019 RMK A01 T00441096  RH  035%=      5-min Rain = 0
KTH1 120020Z 34013KT 04/M10 A3019 RMK A01 T00441097  RH  035%=      5-min Rain = 0
KTH1 120021Z 34012KT 04/M10 A3019 RMK A01 T00441097  RH  035%=      5-min Rain = 0
KTH1 120022Z 34013G18KT 05/M10 A3019 RMK A01 T00451095  RH  035%=      5-min Rain = 0
KTH1 120023Z 33013KT 05/M10 A3019 RMK A01 T00461095  RH  035%=      5-min Rain = 0
KTH1 120024Z 34014G20KT 05/M10 A3019 RMK A01 T00461097  RH  035%=      5-min Rain = 0
KTH1 120025Z 33012KT 05/M10 A3019 RMK A01 T00461097  RH  035%=      5-min Rain = 0
KTH1 120026Z 33014KT 05/M10 A3019 RMK A01 T00461096  RH  035%=      5-min Rain = 0
KTH1 120027Z 34015KT 05/M10 A3019 RMK A01 T00461096  RH  035%=      5-min Rain = 0
KTH1 120028Z 33013G18KT 05/M10 A3019 RMK A01 T00461097  RH  035%=      5-min Rain = 0
KTH1 120029Z 34013KT 05/M10 A3019 RMK A01 T00461097  RH  035%=      5-min Rain = 0
KTH1 120030Z 33012KT 05/M10 A3019 RMK A01 T00461097  RH  035%=      5-min Rain = 0
KTH1 120031Z 33012KT 05/M10 A3019 RMK A01 T00461097  RH  035%=      5-min Rain = 0
KTH1 120032Z 33014G19KT 05/M10 A3019 RMK A01 T00461097  RH  035%=      5-min Rain = 0
KTH1 120033Z 33012KT 05/M10 A302 RMK A01 T00461097  RH  035%=      5-min Rain = 0
KTH1 120034Z 33012G17KT 05/M10 A302 RMK A01 T00461097  RH  035%=      5-min Rain = 0
KTH1 120035Z 34012KT 05/M10 A302 RMK A01 T00461097  RH  035%=      5-min Rain = 0
KTH1 120036Z 33011G16KT 05/M10 A302 RMK A01 T00451098  RH  035%=      5-min Rain = 0
KTH1 120037Z 33012G17KT 05/M10 A302 RMK A01 T00451097  RH  035%=      5-min Rain = 0
KTH1 120038Z 33011KT 05/M10 A302 RMK A01 T00451098  RH  035%=      5-min Rain = 0
KTH1 120039Z 33013KT 05/M10 A302 RMK A01 T00451098  RH  035%=      5-min Rain = 0
KTH1 120040Z 34011KT 05/M10 A302 RMK A01 T00451099  RH  034%=      5-min Rain = 0
KTH1 120041Z 33011KT 05/M10 A302 RMK A01 T00451099  RH  034%=      5-min Rain = 0
KTH1 120042Z 33010KT 05/M10 A302 RMK A01 T00451098  RH  035%=      5-min Rain = 0
KTH1 120043Z 33012KT 04/M10 A302 RMK A01 T00441098  RH  035%=      5-min Rain = 0
KTH1 120044Z 33010KT 04/M10 A302 RMK A01 T00441098  RH  035%=      5-min Rain = 0
KTH1 120045Z 33013G18KT 04/M10 A302 RMK A01 T00441098  RH  035%=      5-min Rain = 0
KTH1 120046Z 33012KT 04/M10 A3021 RMK A01 T00441098  RH  035%=      5-min Rain = 0
KTH1 120047Z 34012KT 04/M10 A3021 RMK A01 T00431098  RH  035%=      5-min Rain = 0
KTH1 120048Z 33010KT 04/M10 A3021 RMK A01 T00431097  RH  035%=      5-min Rain = 0
KTH1 120049Z 34011KT 04/M10 A3021 RMK A01 T00421097  RH  035%=      5-min Rain = 0
KTH1 120050Z 33011KT 04/M10 A3021 RMK A01 T00421097  RH  036%=      5-min Rain = 0
KTH1 120051Z 33010KT 04/M10 A3021 RMK A01 T00421097  RH  036%=      5-min Rain = 0
KTH1 120052Z 33010KT 04/M10 A3021 RMK A01 T00421096  RH  036%=      5-min Rain = 0
KTH1 120053Z 33011KT 04/M10 A3021 RMK A01 T00411096  RH  036%=      5-min Rain = 0
KTH1 120054Z 33012G18KT 04/M10 A3021 RMK A01 T00411097  RH  036%=      5-min Rain = 0
KTH1 120055Z 34010G15KT 04/M10 A3021 RMK A01 T00411098  RH  036%=      5-min Rain = 0
KTH1 120056Z 33011G16KT 04/M10 A3021 RMK A01 T00411097  RH  036%=      5-min Rain = 0
KTH1 120057Z 34011KT 04/M10 A3021 RMK A01 T00411097  RH  036%=      5-min Rain = 0
KTH1 120058Z 33011KT 04/M10 A3021 RMK A01 T00411096  RH  036%=      5-min Rain = 0
KTH1 120059Z 34013KT 04/M10 A3021 RMK A01 T00411096  RH  036%=      5-min Rain = 0
KTH1 120100Z 33011KT 04/M10 A3021 RMK A01 T00411096  RH  036%=      5-min Rain = 0
KTH1 120101Z 33011G16KT 04/M10 A3021 RMK A01 T00411096  RH  036%=      5-min Rain = 0
KTH1 120102Z 33012KT 04/M10 A3021 RMK A01 T00411096  RH  036%=      5-min Rain = 0
KTH1 120103Z 33011KT 04/M10 A3021 RMK A01 T00401096  RH  036%=      5-min Rain = 0
KTH1 120104Z 33011KT 04/M10 A3021 RMK A01 T00401095  RH  037%=      5-min Rain = 0
KTH1 120105Z 33014KT 04/M10 A3021 RMK A01 T00391096  RH  037%=      5-min Rain = 0
KTH1 120106Z 33010KT 04/M10 A3021 RMK A01 T00391096  RH  036%=      5-min Rain = 0
KTH1 120107Z 33011KT 04/M10 A3021 RMK A01 T00391095  RH  037%=      5-min Rain = 0
KTH1 120108Z 33013KT 04/M10 A3021 RMK A01 T00391095  RH  037%=      5-min Rain = 0
KTH1 120109Z 33014KT 04/M10 A3021 RMK A01 T00391096  RH  037%=      5-min Rain = 0
KTH1 120110Z 33013KT 04/M10 A3021 RMK A01 T00391097  RH  036%=      5-min Rain = 0
KTH1 120111Z 33013KT 04/M10 A3021 RMK A01 T00391096  RH  036%=      5-min Rain = 0
KTH1 120112Z 33013KT 04/M10 A3021 RMK A01 T00391097  RH  036%=      5-min Rain = 0
KTH1 120113Z 33011KT 04/M10 A3021 RMK A01 T00401095  RH  037%=      5-min Rain = 0
KTH1 120114Z 33011KT 04/M09 A3021 RMK A01 T00391094  RH  037%=      5-min Rain = 0
KTH1 120115Z 34011KT 04/M10 A3021 RMK A01 T00381095  RH  037%=      5-min Rain = 0
KTH1 120116Z 33011KT 04/M10 A3021 RMK A01 T00381095  RH  037%=      5-min Rain = 0
KTH1 120117Z 33010G15KT 04/M10 A3021 RMK A01 T00381095  RH  037%=      5-min Rain = 0
KTH1 120118Z 33011KT 04/M09 A3021 RMK A01 T00381094  RH  037%=      5-min Rain = 0
KTH1 120119Z 33010KT 04/M09 A3022 RMK A01 T00381094  RH  037%=      5-min Rain = 0
KTH1 120120Z 33010KT 04/M10 A3022 RMK A01 T00381095  RH  037%=      5-min Rain = 0
KTH1 120121Z 33010KT 04/M10 A3022 RMK A01 T00371095  RH  038%=      5-min Rain = 0
KTH1 120122Z 33010KT 04/M09 A3022 RMK A01 T00361094  RH  038%=      5-min Rain = 0
KTH1 120123Z 33011KT 04/M09 A3022 RMK A01 T00351094  RH  038%=      5-min Rain = 0
KTH1 120124Z 33009KT 04/M09 A3022 RMK A01 T00351094  RH  038%=      5-min Rain = 0
KTH1 120125Z 33011KT 03/M09 A3022 RMK A01 T00341094  RH  038%=      5-min Rain = 0
KTH1 120126Z 33009KT 03/M10 A3022 RMK A01 T00341095  RH  038%=      5-min Rain = 0
KTH1 120127Z 32010KT 03/M10 A3022 RMK A01 T00331096  RH  038%=      5-min Rain = 0
KTH1 120128Z 33010KT 03/M10 A3022 RMK A01 T00321095  RH  039%=      5-min Rain = 0
KTH1 120129Z 32011KT 03/M09 A3022 RMK A01 T00321094  RH  039%=      5-min Rain = 0
KTH1 120130Z 32011KT 03/M09 A3022 RMK A01 T00321093  RH  039%=      5-min Rain = 0
KTH1 120131Z 32010KT 03/M09 A3022 RMK A01 T00321092  RH  040%=      5-min Rain = 0
KTH1 120132Z 32011KT 03/M09 A3022 RMK A01 T00321092  RH  040%=      5-min Rain = 0
KTH1 120133Z 32011KT 03/M09 A3022 RMK A01 T00321092  RH  040%=      5-min Rain = 0
KTH1 120134Z 33010KT 03/M09 A3022 RMK A01 T00321092  RH  040%=      5-min Rain = 0
KTH1 120135Z 33011KT 03/M09 A3022 RMK A01 T00321093  RH  040%=      5-min Rain = 0
KTH1 120136Z 33011KT 03/M09 A3022 RMK A01 T00321093  RH  040%=      5-min Rain = 0
KTH1 120137Z 33012KT 03/M09 A3022 RMK A01 T00321092  RH  040%=      5-min Rain = 0
KTH1 120138Z 32011KT 03/M09 A3022 RMK A01 T00321092  RH  040%=      5-min Rain = 0
KTH1 120139Z 32011KT 03/M09 A3022 RMK A01 T00331090  RH  040%=      5-min Rain = 0
KTH1 120140Z 32012KT 03/M09 A3023 RMK A01 T00321090  RH  040%=      5-min Rain = 0
KTH1 120141Z 33011KT 03/M09 A3023 RMK A01 T00321093  RH  039%=      5-min Rain = 0
KTH1 120142Z 32010KT 03/M09 A3023 RMK A01 T00321092  RH  040%=      5-min Rain = 0
KTH1 120143Z 32012KT 03/M09 A3023 RMK A01 T00321091  RH  040%=      5-min Rain = 0
KTH1 120144Z 33011KT 03/M09 A3023 RMK A01 T00321092  RH  040%=      5-min Rain = 0
KTH1 120145Z 33010KT 03/M09 A3023 RMK A01 T00321093  RH  040%=      5-min Rain = 0
KTH1 120146Z 33011KT 03/M09 A3023 RMK A01 T00321091  RH  040%=      5-min Rain = 0
KTH1 120147Z 33010KT 03/M09 A3024 RMK A01 T00311091  RH  040%=      5-min Rain = 0
KTH1 120148Z 33011KT 03/M09 A3024 RMK A01 T00311091  RH  040%=      5-min Rain = 0
KTH1 120149Z 33010KT 03/M09 A3024 RMK A01 T00311092  RH  040%=      5-min Rain = 0
KTH1 120150Z 33010KT 03/M09 A3024 RMK A01 T00311091  RH  041%=      5-min Rain = 0
KTH1 120151Z 33011KT 03/M09 A3024 RMK A01 T00301090  RH  041%=      5-min Rain = 0
KTH1 120152Z 33011G16KT 03/M09 A3024 RMK A01 T00301090  RH  041%=      5-min Rain = 0
KTH1 120153Z 33010KT 03/M09 A3024 RMK A01 T00301090  RH  041%=      5-min Rain = 0
KTH1 120154Z 33011KT 03/M09 A3024 RMK A01 T00301090  RH  041%=      5-min Rain = 0
KTH1 120155Z 33011KT 03/M09 A3024 RMK A01 T00291090  RH  041%=      5-min Rain = 0
KTH1 120156Z 33011KT 03/M09 A3024 RMK A01 T00291090  RH  041%=      5-min Rain = 0
KTH1 120157Z 32011KT 03/M09 A3024 RMK A01 T00291091  RH  041%=      5-min Rain = 0
KTH1 120158Z 32011KT 03/M09 A3024 RMK A01 T00291091  RH  041%=      5-min Rain = 0
KTH1 120159Z 32010KT 03/M09 A3024 RMK A01 T00291092  RH  041%=      5-min Rain = 0
KTH1 120200Z 32011KT 03/M09 A3024 RMK A01 T00291090  RH  041%=      5-min Rain = 0
KTH1 120201Z 32011KT 03/M09 A3024 RMK A01 T00281090  RH  042%=      5-min Rain = 0
KTH1 120202Z 32012KT 03/M09 A3024 RMK A01 T00281089  RH  042%=      5-min Rain = 0
KTH1 120203Z 33013KT 03/M09 A3024 RMK A01 T00281090  RH  042%=      5-min Rain = 0
KTH1 120204Z 32012KT 03/M09 A3024 RMK A01 T00281089  RH  042%=      5-min Rain = 0
KTH1 120205Z 32011KT 03/M09 A3024 RMK A01 T00281089  RH  042%=      5-min Rain = 0
KTH1 120206Z 32011KT 03/M09 A3024 RMK A01 T00281089  RH  042%=      5-min Rain = 0
KTH1 120207Z 32012KT 03/M09 A3024 RMK A01 T00271087  RH  043%=      5-min Rain = 0
KTH1 120208Z 32013KT 03/M09 A3024 RMK A01 T00271087  RH  043%=      5-min Rain = 0
KTH1 120209Z 32013KT 03/M09 A3024 RMK A01 T00281088  RH  042%=      5-min Rain = 0
KTH1 120210Z 33014KT 03/M09 A3025 RMK A01 T00271089  RH  042%=      5-min Rain = 0
KTH1 120211Z 33014KT 03/M09 A3025 RMK A01 T00291089  RH  042%=      5-min Rain = 0
KTH1 120212Z 33013KT 03/M09 A3025 RMK A01 T00291090  RH  041%=      5-min Rain = 0
KTH1 120213Z 33016KT 03/M09 A3025 RMK A01 T00301090  RH  041%=      5-min Rain = 0
KTH1 120214Z 33011KT 03/M09 A3025 RMK A01 T00301091  RH  041%=      5-min Rain = 0
KTH1 120215Z 33010KT 03/M09 A3025 RMK A01 T00301090  RH  041%=      5-min Rain = 0
KTH1 120216Z 33013KT 03/M09 A3025 RMK A01 T00301090  RH  041%=      5-min Rain = 0
KTH1 120217Z 34012KT 03/M09 A3025 RMK A01 T00301091  RH  041%=      5-min Rain = 0
KTH1 120218Z 33010KT 03/M09 A3025 RMK A01 T00301091  RH  041%=      5-min Rain = 0
KTH1 120219Z 33010KT 03/M09 A3025 RMK A01 T00291090  RH  041%=      5-min Rain = 0
KTH1 120220Z 33012G18KT 03/M09 A3025 RMK A01 T00291090  RH  041%=      5-min Rain = 0
KTH1 120221Z 33011KT 03/M09 A3025 RMK A01 T00291091  RH  041%=      5-min Rain = 0
KTH1 120222Z 33011KT 03/M09 A3025 RMK A01 T00281091  RH  041%=      5-min Rain = 0
KTH1 120223Z 34010G15KT 03/M09 A3025 RMK A01 T00291090  RH  041%=      5-min Rain = 0
KTH1 120224Z 33011KT 03/M09 A3026 RMK A01 T00281090  RH  041%=      5-min Rain = 0
KTH1 120225Z 33010KT 03/M09 A3026 RMK A01 T00281091  RH  041%=      5-min Rain = 0
KTH1 120226Z 34010KT 03/M09 A3026 RMK A01 T00281091  RH  041%=      5-min Rain = 0
KTH1 120227Z 33010KT 03/M09 A3026 RMK A01 T00271092  RH  041%=      5-min Rain = 0
KTH1 120228Z 33009KT 03/M09 A3026 RMK A01 T00281091  RH  041%=      5-min Rain = 0
KTH1 120229Z 34008KT 03/M09 A3026 RMK A01 T00271090  RH  042%=      5-min Rain = 0
KTH1 120230Z 33009KT 03/M09 A3026 RMK A01 T00271090  RH  042%=      5-min Rain = 0
KTH1 120231Z 33009KT 03/M09 A3026 RMK A01 T00261091  RH  042%=      5-min Rain = 0
KTH1 120232Z 34008KT 03/M09 A3026 RMK A01 T00261090  RH  042%=      5-min Rain = 0
KTH1 120233Z 33011KT 03/M09 A3026 RMK A01 T00261090  RH  042%=      5-min Rain = 0
KTH1 120234Z 34011KT 03/M09 A3026 RMK A01 T00261090  RH  042%=      5-min Rain = 0
KTH1 120235Z 33009KT 03/M09 A3026 RMK A01 T00261090  RH  042%=      5-min Rain = 0
KTH1 120236Z 33012KT 03/M09 A3026 RMK A01 T00261089  RH  043%=      5-min Rain = 0
KTH1 120237Z 33010KT 03/M09 A3027 RMK A01 T00261089  RH  042%=      5-min Rain = 0
KTH1 120238Z 33013KT 03/M09 A3027 RMK A01 T00261089  RH  042%=      5-min Rain = 0
KTH1 120239Z 34012G17KT 03/M09 A3027 RMK A01 T00261089  RH  042%=      5-min Rain = 0
KTH1 120240Z 34013KT 03/M09 A3027 RMK A01 T00271090  RH  042%=      5-min Rain = 0
KTH1 120241Z 33011KT 03/M09 A3027 RMK A01 T00271090  RH  042%=      5-min Rain = 0
KTH1 120242Z 34011KT 03/M09 A3027 RMK A01 T00271090  RH  042%=      5-min Rain = 0
KTH1 120243Z 34012KT 03/M09 A3027 RMK A01 T00271088  RH  043%=      5-min Rain = 0
KTH1 120244Z 34012G17KT 03/M09 A3027 RMK A01 T00271089  RH  042%=      5-min Rain = 0
KTH1 120245Z 33014KT 03/M09 A3027 RMK A01 T00271089  RH  042%=      5-min Rain = 0
KTH1 120246Z 34011G17KT 03/M09 A3027 RMK A01 T00271089  RH  042%=      5-min Rain = 0
KTH1 120247Z 33012KT 03/M09 A3027 RMK A01 T00271089  RH  042%=      5-min Rain = 0
KTH1 120248Z 34014G19KT 03/M09 A3027 RMK A01 T00271089  RH  042%=      5-min Rain = 0
KTH1 120249Z 34012G18KT 03/M09 A3027 RMK A01 T00271090  RH  042%=      5-min Rain = 0
KTH1 120250Z 33012KT 03/M09 A3027 RMK A01 T00271089  RH  042%=      5-min Rain = 0
KTH1 120251Z 34011G18KT 03/M09 A3027 RMK A01 T00271089  RH  042%=      5-min Rain = 0
KTH1 120252Z 33013G20KT 03/M09 A3027 RMK A01 T00271090  RH  042%=      5-min Rain = 0
KTH1 120253Z 34010G15KT 03/M09 A3027 RMK A01 T00271090  RH  042%=      5-min Rain = 0
KTH1 120254Z 33010KT 03/M09 A3027 RMK A01 T00271088  RH  043%=      5-min Rain = 0
KTH1 120255Z 33010KT 03/M09 A3027 RMK A01 T00251087  RH  043%=      5-min Rain = 0
KTH1 120256Z 34010G15KT 03/M09 A3027 RMK A01 T00251087  RH  043%=      5-min Rain = 0
KTH1 120257Z 33010KT 03/M09 A3028 RMK A01 T00251087  RH  043%=      5-min Rain = 0
KTH1 120258Z 33010KT 03/M09 A3028 RMK A01 T00251088  RH  043%=      5-min Rain = 0
KTH1 120259Z 33009G14KT 02/M09 A3027 RMK A01 T00241088  RH  043%=      5-min Rain = 0
KTH1 120300Z 33010KT 02/M09 A3028 RMK A01 T00241087  RH  044%=      5-min Rain = 0
KTH1 120301Z 32010KT 02/M09 A3028 RMK A01 T00231086  RH  044%=      5-min Rain = 0
KTH1 120302Z 33010KT 02/M09 A3028 RMK A01 T00231086  RH  045%=      5-min Rain = 0
KTH1 120303Z 33009KT 02/M09 A3028 RMK A01 T00221085  RH  045%=      5-min Rain = 0
KTH1 120304Z 33010KT 02/M08 A3028 RMK A01 T00221084  RH  045%=      5-min Rain = 0
KTH1 120305Z 33010KT 02/M09 A3028 RMK A01 T00221085  RH  045%=      5-min Rain = 0
KTH1 120306Z 32010KT 02/M09 A3028 RMK A01 T00221086  RH  045%=      5-min Rain = 0
KTH1 120307Z 32010KT 02/M09 A3028 RMK A01 T00221086  RH  045%=      5-min Rain = 0
KTH1 120308Z 32009KT 02/M09 A3028 RMK A01 T00211085  RH  045%=      5-min Rain = 0
KTH1 120309Z 33009KT 02/M09 A3028 RMK A01 T00211085  RH  046%=      5-min Rain = 0
KTH1 120310Z 32011KT 02/M08 A3028 RMK A01 T00201084  RH  046%=      5-min Rain = 0
KTH1 120311Z 33010KT 02/M08 A3028 RMK A01 T00201084  RH  046%=      5-min Rain = 0
KTH1 120312Z 32010KT 02/M08 A3028 RMK A01 T00201084  RH  046%=      5-min Rain = 0
KTH1 120313Z 32010KT 02/M08 A3028 RMK A01 T00191083  RH  047%=      5-min Rain = 0
KTH1 120314Z 32011KT 02/M09 A3028 RMK A01 T00191085  RH  046%=      5-min Rain = 0
KTH1 120315Z 32013KT 02/M09 A3028 RMK A01 T00191085  RH  046%=      5-min Rain = 0
KTH1 120316Z 33012KT 02/M09 A3028 RMK A01 T00181085  RH  046%=      5-min Rain = 0
KTH1 120317Z 33012KT 02/M09 A3028 RMK A01 T00191085  RH  046%=      5-min Rain = 0
KTH1 120318Z 33011KT 02/M09 A3028 RMK A01 T00181086  RH  046%=      5-min Rain = 0
KTH1 120319Z 33011KT 02/M09 A3028 RMK A01 T00181085  RH  046%=      5-min Rain = 0
KTH1 120320Z 33012KT 02/M09 A3028 RMK A01 T00181086  RH  046%=      5-min Rain = 0
KTH1 120321Z 33012KT 02/M09 A3028 RMK A01 T00181087  RH  046%=      5-min Rain = 0
KTH1 120322Z 33011KT 02/M09 A3028 RMK A01 T00181086  RH  046%=      5-min Rain = 0
KTH1 120323Z 33011KT 02/M09 A3028 RMK A01 T00181087  RH  046%=      5-min Rain = 0
KTH1 120324Z 33011KT 02/M09 A3028 RMK A01 T00181085  RH  046%=      5-min Rain = 0
KTH1 120325Z 33011KT 02/M09 A3028 RMK A01 T00181085  RH  046%=      5-min Rain = 0
KTH1 120326Z 33012KT 02/M09 A3028 RMK A01 T00181085  RH  047%=      5-min Rain = 0
KTH1 120327Z 34011KT 02/M09 A3028 RMK A01 T00171086  RH  046%=      5-min Rain = 0
KTH1 120328Z 33012KT 02/M08 A3028 RMK A01 T00181084  RH  047%=      5-min Rain = 0
KTH1 120329Z 33011KT 02/M08 A3029 RMK A01 T00181084  RH  047%=      5-min Rain = 0
KTH1 120330Z 33012G18KT 02/M08 A3029 RMK A01 T00181084  RH  047%=      5-min Rain = 0
KTH1 120331Z 33013KT 02/M08 A3029 RMK A01 T00181084  RH  047%=      5-min Rain = 0
KTH1 120332Z 33012KT 02/M08 A3029 RMK A01 T00181084  RH  046%=      5-min Rain = 0
KTH1 120333Z 33012G17KT 02/M09 A3029 RMK A01 T00191085  RH  046%=      5-min Rain = 0
KTH1 120334Z 33014KT 02/M08 A3029 RMK A01 T00191084  RH  046%=      5-min Rain = 0
KTH1 120335Z 33011G16KT 02/M08 A3029 RMK A01 T00201084  RH  046%=      5-min Rain = 0
KTH1 120336Z 34011KT 02/M08 A3029 RMK A01 T00201084  RH  046%=      5-min Rain = 0
KTH1 120337Z 33012KT 02/M08 A3029 RMK A01 T00201084  RH  046%=      5-min Rain = 0
KTH1 120338Z 34012KT 02/M08 A3029 RMK A01 T00191084  RH  046%=      5-min Rain = 0
KTH1 120339Z 33010KT 02/M08 A3029 RMK A01 T00191084  RH  046%=      5-min Rain = 0
KTH1 120340Z 34013KT 02/M08 A3029 RMK A01 T00191084  RH  046%=      5-min Rain = 0
KTH1 120341Z 34010KT 02/M08 A3029 RMK A01 T00191084  RH  046%=      5-min Rain = 0
KTH1 120342Z 34010KT 02/M08 A3029 RMK A01 T00191083  RH  047%=      5-min Rain = 0
KTH1 120343Z 34009G14KT 02/M08 A3029 RMK A01 T00191083  RH  047%=      5-min Rain = 0
KTH1 120344Z 34011KT 02/M08 A3029 RMK A01 T00181083  RH  047%=      5-min Rain = 0
KTH1 120345Z 35009KT 02/M08 A3029 RMK A01 T00181083  RH  047%=      5-min Rain = 0
KTH1 120346Z 34011KT 02/M08 A3029 RMK A01 T00181083  RH  047%=      5-min Rain = 0
KTH1 120347Z 33010G16KT 02/M08 A3029 RMK A01 T00171083  RH  047%=      5-min Rain = 0
KTH1 120348Z 34010KT 02/M08 A303 RMK A01 T00171083  RH  047%=      5-min Rain = 0
KTH1 120349Z 34008G14KT 02/M08 A303 RMK A01 T00171083  RH  047%=      5-min Rain = 0
KTH1 120350Z 33008KT 02/M08 A303 RMK A01 T00171082  RH  048%=      5-min Rain = 0
KTH1 120351Z 34008KT 02/M08 A303 RMK A01 T00161082  RH  048%=      5-min Rain = 0
KTH1 120352Z 34010KT 02/M08 A303 RMK A01 T00151081  RH  049%=      5-min Rain = 0
KTH1 120353Z 34009KT 02/M08 A303 RMK A01 T00151081  RH  049%=      5-min Rain = 0
KTH1 120354Z 34010KT 02/M08 A303 RMK A01 T00151082  RH  049%=      5-min Rain = 0
KTH1 120355Z 34010KT 02/M08 A303 RMK A01 T00151082  RH  048%=      5-min Rain = 0
KTH1 120356Z 34010KT 02/M08 A303 RMK A01 T00151082  RH  048%=      5-min Rain = 0
KTH1 120357Z 34011G17KT 02/M08 A303 RMK A01 T00151083  RH  048%=      5-min Rain = 0
KTH1 120358Z 35009KT 02/M08 A303 RMK A01 T00161082  RH  048%=      5-min Rain = 0
KTH1 120359Z 34011KT 02/M08 A303 RMK A01 T00151082  RH  048%=      5-min Rain = 0
KTH1 120400Z 34008KT 02/M08 A303 RMK A01 T00151082  RH  048%=      5-min Rain = 0
KTH1 120401Z 34011G17KT 02/M08 A303 RMK A01 T00151081  RH  049%=      5-min Rain = 0
KTH1 120402Z 34011KT 02/M08 A303 RMK A01 T00151082  RH  048%=      5-min Rain = 0
KTH1 120403Z 34013G20KT 02/M08 A303 RMK A01 T00151082  RH  049%=      5-min Rain = 0
KTH1 120404Z 34011G16KT 02/M08 A303 RMK A01 T00161084  RH  048%=      5-min Rain = 0
KTH1 120405Z 34010KT 02/M08 A303 RMK A01 T00161083  RH  048%=      5-min Rain = 0
KTH1 120406Z 34012KT 02/M08 A3031 RMK A01 T00161083  RH  048%=      5-min Rain = 0
KTH1 120407Z 34011KT 02/M08 A3031 RMK A01 T00161084  RH  047%=      5-min Rain = 0
KTH1 120408Z 35009KT 02/M08 A3031 RMK A01 T00161084  RH  048%=      5-min Rain = 0
KTH1 120409Z 35011KT 02/M08 A3031 RMK A01 T00161083  RH  048%=      5-min Rain = 0
KTH1 120410Z 34012KT 02/M08 A3031 RMK A01 T00161084  RH  048%=      5-min Rain = 0
KTH1 120411Z 34009KT 02/M08 A3031 RMK A01 T00151083  RH  048%=      5-min Rain = 0
KTH1 120412Z 34008KT 02/M08 A3031 RMK A01 T00151083  RH  048%=      5-min Rain = 0
KTH1 120413Z 34010KT 02/M08 A3031 RMK A01 T00151083  RH  048%=      5-min Rain = 0
KTH1 120414Z 35010KT 01/M09 A3031 RMK A01 T00141085  RH  048%=      5-min Rain = 0
KTH1 120415Z 35010KT 01/M08 A3031 RMK A01 T00141084  RH  048%=      5-min Rain = 0
KTH1 120416Z 35011G16KT 01/M09 A3031 RMK A01 T00141085  RH  048%=      5-min Rain = 0
KTH1 120417Z 36014KT 01/M09 A3031 RMK A01 T00131086  RH  048%=      5-min Rain = 0
KTH1 120418Z 35010G15KT 01/M09 A3031 RMK A01 T00141087  RH  047%=      5-min Rain = 0
KTH1 120419Z 35010G15KT 01/M09 A3031 RMK A01 T00141087  RH  047%=      5-min Rain = 0
KTH1 120420Z 34011KT 01/M09 A3031 RMK A01 T00141086  RH  047%=      5-min Rain = 0
KTH1 120421Z 35012G17KT 01/M09 A3031 RMK A01 T00131086  RH  047%=      5-min Rain = 0
KTH1 120422Z 36011KT 01/M09 A3031 RMK A01 T00131087  RH  047%=      5-min Rain = 0
KTH1 120423Z 35010G15KT 01/M09 A3031 RMK A01 T00131087  RH  047%=      5-min Rain = 0
KTH1 120424Z 36012KT 01/M09 A3031 RMK A01 T00131087  RH  047%=      5-min Rain = 0
KTH1 120425Z 36012KT 01/M09 A3031 RMK A01 T00131088  RH  047%=      5-min Rain = 0
KTH1 120426Z 00013KT 01/M09 A3031 RMK A01 T00131089  RH  047%=      5-min Rain = 0
KTH1 120427Z 35011G16KT 01/M09 A3031 RMK A01 T00121089  RH  047%=      5-min Rain = 0
KTH1 120428Z 35010KT 01/M09 A3031 RMK A01 T00121089  RH  047%=      5-min Rain = 0
KTH1 120429Z 00010KT 01/M09 A3031 RMK A01 T00121089  RH  047%=      5-min Rain = 0
KTH1 120430Z 35010G15KT 01/M09 A3031 RMK A01 T00111089  RH  047%=      5-min Rain = 0
KTH1 120431Z 00010KT 01/M09 A3031 RMK A01 T00101090  RH  047%=      5-min Rain = 0
KTH1 120432Z 01009KT 01/M09 A3031 RMK A01 T00101090  RH  047%=      5-min Rain = 0
KTH1 120433Z 35012KT 01/M09 A3031 RMK A01 T00101090  RH  047%=      5-min Rain = 0
KTH1 120434Z 00011KT 01/M09 A3032 RMK A01 T00101090  RH  047%=      5-min Rain = 0
KTH1 120435Z 00014KT 01/M09 A3032 RMK A01 T00101091  RH  047%=      5-min Rain = 0
KTH1 120436Z 36011G16KT 01/M09 A3032 RMK A01 T00101092  RH  046%=      5-min Rain = 0
KTH1 120437Z 36008G13KT 01/M09 A3032 RMK A01 T00101092  RH  046%=      5-min Rain = 0
KTH1 120438Z 36008KT 01/M09 A3032 RMK A01 T00101092  RH  047%=      5-min Rain = 0
KTH1 120439Z 36011KT 01/M09 A3032 RMK A01 T00091091  RH  047%=      5-min Rain = 0
KTH1 120440Z 36012G18KT 01/M09 A3032 RMK A01 T00091093  RH  046%=      5-min Rain = 0
KTH1 120441Z 00009G18KT 01/M09 A3032 RMK A01 T00091094  RH  046%=      5-min Rain = 0
KTH1 120442Z 00011KT 01/M09 A3032 RMK A01 T00091094  RH  046%=      5-min Rain = 0
KTH1 120443Z 36009KT 01/M09 A3032 RMK A01 T00091094  RH  046%=      5-min Rain = 0
KTH1 120444Z 00014KT 01/M09 A3032 RMK A01 T00091094  RH  046%=      5-min Rain = 0
KTH1 120445Z 36011KT 01/M10 A3032 RMK A01 T00091095  RH  046%=      5-min Rain = 0
KTH1 120446Z 00013G21KT 01/M10 A3032 RMK A01 T00091095  RH  046%=      5-min Rain = 0
KTH1 120447Z 36010KT 01/M10 A3032 RMK A01 T00091096  RH  045%=      5-min Rain = 0
KTH1 120448Z 00012G18KT 01/M10 A3032 RMK A01 T00091096  RH  046%=      5-min Rain = 0
KTH1 120449Z 00010G15KT 01/M10 A3032 RMK A01 T00091096  RH  045%=      5-min Rain = 0
KTH1 120450Z 36011KT 01/M10 A3032 RMK A01 T00091096  RH  046%=      5-min Rain = 0
KTH1 120451Z 36009KT 01/M10 A3032 RMK A01 T00081096  RH  046%=      5-min Rain = 0
KTH1 120452Z 00008KT 01/M10 A3032 RMK A01 T00071096  RH  046%=      5-min Rain = 0
KTH1 120453Z 01011KT 01/M10 A3032 RMK A01 T00061097  RH  046%=      5-min Rain = 0
KTH1 120454Z 01008G13KT 01/M10 A3032 RMK A01 T00061096  RH  046%=      5-min Rain = 0
KTH1 120455Z 00010G15KT 01/M10 A3032 RMK A01 T00061097  RH  046%=      5-min Rain = 0
KTH1 120456Z 00012G17KT 01/M10 A3032 RMK A01 T00061097  RH  046%=      5-min Rain = 0
KTH1 120457Z 01011KT 01/M10 A3032 RMK A01 T00051097  RH  046%=      5-min Rain = 0
KTH1 120458Z 00009G14KT 01/M10 A3032 RMK A01 T00061097  RH  046%=      5-min Rain = 0
KTH1 120459Z 36011KT 01/M10 A3032 RMK A01 T00051098  RH  046%=      5-min Rain = 0
KTH1 120500Z 00010G15KT 01/M10 A3032 RMK A01 T00051098  RH  046%=      5-min Rain = 0
KTH1 120501Z 01009KT 01/M10 A3032 RMK A01 T00051098  RH  046%=      5-min Rain = 0
KTH1 120502Z 01009KT 00/M10 A3032 RMK A01 T00041098  RH  046%=      5-min Rain = 0
KTH1 120503Z 01007KT 00/M10 A3032 RMK A01 T00031098  RH  046%=      5-min Rain = 0
KTH1 120504Z 01009KT 00/M10 A3032 RMK A01 T00031098  RH  047%=      5-min Rain = 0
KTH1 120505Z 36008KT 00/M10 A3032 RMK A01 T00021098  RH  047%=      5-min Rain = 0
KTH1 120506Z 01010KT 00/M10 A3032 RMK A01 T00011098  RH  047%=      5-min Rain = 0
KTH1 120507Z 36009KT 00/M10 A3031 RMK A01 T00011098  RH  047%=      5-min Rain = 0
KTH1 120508Z 01009KT 00/M10 A3031 RMK A01 T00011098  RH  047%=      5-min Rain = 0
KTH1 120509Z 36010KT 00/M10 A3031 RMK A01 T00011098  RH  047%=      5-min Rain = 0
KTH1 120510Z 01010KT 00/M10 A3031 RMK A01 T00011098  RH  047%=      5-min Rain = 0
KTH1 120511Z 00009KT 00/M10 A3031 RMK A01 T00011098  RH  047%=      5-min Rain = 0
KTH1 120512Z 00010KT 00/10 A3032 RMK A01 T00-00-98  RH  048%=      5-min Rain = 0
KTH1 120513Z 35011KT 00/10 A3032 RMK A01 T00-00-98  RH  048%=      5-min Rain = 0
KTH1 120514Z 00010KT 00/10 A3032 RMK A01 T00-00-98  RH  048%=      5-min Rain = 0
KTH1 120515Z 36010KT 00/10 A3032 RMK A01 T00000-97  RH  048%=      5-min Rain = 0
KTH1 120516Z 36009KT 00/10 A3031 RMK A01 T00-00-97  RH  048%=      5-min Rain = 0
KTH1 120517Z 00010G15KT M00/M10 A3031 RMK A01 T10011097  RH  048%=      5-min Rain = 0
KTH1 120518Z 00009KT M00/M10 A3031 RMK A01 T10021098  RH  048%=      5-min Rain = 0
KTH1 120519Z 01008G15KT M00/M10 A3031 RMK A01 T10021098  RH  048%=      5-min Rain = 0
KTH1 120520Z 00013KT M00/M10 A3031 RMK A01 T10021097  RH  049%=      5-min Rain = 0
KTH1 120521Z 00012G17KT M00/M10 A3031 RMK A01 T10021098  RH  048%=      5-min Rain = 0
KTH1 120522Z 36012KT M00/M10 A3031 RMK A01 T10021099  RH  048%=      5-min Rain = 0
KTH1 120523Z 36011G16KT M00/M10 A3031 RMK A01 T10021098  RH  048%=      5-min Rain = 0
KTH1 120524Z 36010KT M00/M10 A3031 RMK A01 T10021098  RH  048%=      5-min Rain = 0
KTH1 120525Z 00013KT M00/M10 A303 RMK A01 T10021098  RH  048%=      5-min Rain = 0
KTH1 120526Z 36011KT M00/M10 A303 RMK A01 T10021098  RH  048%=      5-min Rain = 0
KTH1 120527Z 00011KT M00/M10 A3031 RMK A01 T10021098  RH  049%=      5-min Rain = 0
KTH1 120528Z 36010G15KT M00/M10 A3031 RMK A01 T10031098  RH  049%=      5-min Rain = 0
KTH1 120529Z 36010KT M00/M10 A3031 RMK A01 T10031098  RH  049%=      5-min Rain = 0
KTH1 120530Z 36012KT M00/M10 A303 RMK A01 T10031098  RH  049%=      5-min Rain = 0
KTH1 120531Z 00011KT M00/M10 A303 RMK A01 T10041098  RH  049%=      5-min Rain = 0
KTH1 120532Z 36011KT M00/M10 A303 RMK A01 T10041099  RH  049%=      5-min Rain = 0
KTH1 120533Z 36011KT M00/M10 A303 RMK A01 T10041099  RH  049%=      5-min Rain = 0
KTH1 120534Z 01010KT M00/M10 A303 RMK A01 T10041099  RH  049%=      5-min Rain = 0
KTH1 120535Z 00010KT M01/M10 A303 RMK A01 T10051100  RH  049%=      5-min Rain = 0
KTH1 120536Z 36010KT M01/M10 A303 RMK A01 T10051100  RH  049%=      5-min Rain = 0
KTH1 120537Z 01009G14KT M01/M10 A303 RMK A01 T10051099  RH  049%=      5-min Rain = 0
KTH1 120538Z 36007KT M01/M10 A303 RMK A01 T10051100  RH  049%=      5-min Rain = 0
KTH1 120539Z 00010KT M01/M10 A303 RMK A01 T10061100  RH  049%=      5-min Rain = 0
KTH1 120540Z 01010KT M01/M10 A303 RMK A01 T10071100  RH  049%=      5-min Rain = 0
KTH1 120541Z 00009KT M01/M10 A303 RMK A01 T10061100  RH  049%=      5-min Rain = 0
KTH1 120542Z 00009KT M01/M10 A303 RMK A01 T10061100  RH  049%=      5-min Rain = 0
KTH1 120543Z 00009KT M01/M10 A303 RMK A01 T10061100  RH  049%=      5-min Rain = 0
KTH1 120544Z 01009KT M01/M10 A303 RMK A01 T10061100  RH  049%=      5-min Rain = 0
KTH1 120545Z 00007KT M01/M10 A303 RMK A01 T10071100  RH  049%=      5-min Rain = 0
KTH1 120546Z 00007G13KT M01/M10 A303 RMK A01 T10071100  RH  049%=      5-min Rain = 0
KTH1 120547Z 01005KT M01/M10 A303 RMK A01 T10081100  RH  050%=      5-min Rain = 0
KTH1 120548Z 36005KT M01/M10 A303 RMK A01 T10081100  RH  050%=      5-min Rain = 0
KTH1 120549Z 36006KT M01/M10 A303 RMK A01 T10091101  RH  050%=      5-min Rain = 0
KTH1 120550Z 36006KT M01/M10 A3031 RMK A01 T10101101  RH  050%=      5-min Rain = 0
KTH1 120551Z 35008KT M01/M10 A3031 RMK A01 T10101101  RH  050%=      5-min Rain = 0
KTH1 120552Z 35005KT M01/M10 A3031 RMK A01 T10101100  RH  051%=      5-min Rain = 0
KTH1 120553Z 00006KT M01/M10 A3031 RMK A01 T10101099  RH  051%=      5-min Rain = 0
KTH1 120554Z 35005KT M01/M10 A3031 RMK A01 T10111098  RH  051%=      5-min Rain = 0
KTH1 120555Z 35008G13KT M01/M10 A3031 RMK A01 T10111099  RH  051%=      5-min Rain = 0
KTH1 120556Z 35006KT M01/M10 A3031 RMK A01 T10111100  RH  051%=      5-min Rain = 0
KTH1 120557Z 35007KT M01/M10 A3031 RMK A01 T10121099  RH  051%=      5-min Rain = 0
KTH1 120558Z 35006KT M01/M10 A3031 RMK A01 T10121099  RH  052%=      5-min Rain = 0
KTH1 120559Z 34005KT M01/M10 A3031 RMK A01 T10131099  RH  052%=      5-min Rain = 0

Page generated in 0.2369 seconds.